Observation data for Happy on 06/13/2019      Previous  Date  Next       Current Mesonet Observations  Soil Data  Daily Summary Page  Observations in Plain Language
KHA2 130500Z 14006KT 14/09 A3024 RMK A01 T01370088  RH  072%=      5-min Rain = 0
KHA2 130501Z 14006KT 14/09 A3024 RMK A01 T01360088  RH  073%=      5-min Rain = 0
KHA2 130502Z 14006KT 14/09 A3024 RMK A01 T01360088  RH  073%=      5-min Rain = 0
KHA2 130503Z 14006KT 14/09 A3024 RMK A01 T01350088  RH  073%=      5-min Rain = 0
KHA2 130504Z 14006KT 14/09 A3025 RMK A01 T01350088  RH  073%=      5-min Rain = 0
KHA2 130505Z 13006KT 14/09 A3025 RMK A01 T01350088  RH  073%=      5-min Rain = 0
KHA2 130506Z 13006KT 14/09 A3025 RMK A01 T01350088  RH  073%=      5-min Rain = 0
KHA2 130507Z 13006KT 14/09 A3024 RMK A01 T01350088  RH  073%=      5-min Rain = 0
KHA2 130508Z 13007KT 14/09 A3024 RMK A01 T01350088  RH  073%=      5-min Rain = 0
KHA2 130509Z 13007KT 14/09 A3024 RMK A01 T01350088  RH  073%=      5-min Rain = 0
KHA2 130510Z 13007KT 14/09 A3024 RMK A01 T01360088  RH  073%=      5-min Rain = 0
KHA2 130511Z 13007KT 14/09 A3024 RMK A01 T01360088  RH  073%=      5-min Rain = 0
KHA2 130512Z 13007KT 14/09 A3024 RMK A01 T01360089  RH  073%=      5-min Rain = 0
KHA2 130513Z 13007KT 14/09 A3025 RMK A01 T01360089  RH  073%=      5-min Rain = 0
KHA2 130514Z 13007KT 14/09 A3025 RMK A01 T01360088  RH  073%=      5-min Rain = 0
KHA2 130515Z 13007KT 14/09 A3025 RMK A01 T01360089  RH  073%=      5-min Rain = 0
KHA2 130516Z 13007KT 14/09 A3025 RMK A01 T01360089  RH  073%=      5-min Rain = 0
KHA2 130517Z 13007KT 14/09 A3025 RMK A01 T01350088  RH  073%=      5-min Rain = 0
KHA2 130518Z 13006KT 14/09 A3025 RMK A01 T01350088  RH  073%=      5-min Rain = 0
KHA2 130519Z 13006KT 13/09 A3025 RMK A01 T01330088  RH  074%=      5-min Rain = 0
KHA2 130520Z 13006KT 13/09 A3025 RMK A01 T01330088  RH  074%=      5-min Rain = 0
KHA2 130521Z 13006KT 13/09 A3025 RMK A01 T01320088  RH  075%=      5-min Rain = 0
KHA2 130522Z 13006KT 13/09 A3025 RMK A01 T01310088  RH  075%=      5-min Rain = 0
KHA2 130523Z 13006KT 13/09 A3025 RMK A01 T01310087  RH  075%=      5-min Rain = 0
KHA2 130524Z 13006KT 13/09 A3025 RMK A01 T01310088  RH  075%=      5-min Rain = 0
KHA2 130525Z 13007KT 13/09 A3025 RMK A01 T01310088  RH  075%=      5-min Rain = 0
KHA2 130526Z 13007KT 13/09 A3025 RMK A01 T01320088  RH  074%=      5-min Rain = 0
KHA2 130527Z 13007KT 13/09 A3025 RMK A01 T01330088  RH  074%=      5-min Rain = 0
KHA2 130528Z 13006KT 13/09 A3025 RMK A01 T01330088  RH  074%=      5-min Rain = 0
KHA2 130529Z 13006KT 13/09 A3025 RMK A01 T01330088  RH  074%=      5-min Rain = 0
KHA2 130530Z 13006KT 13/09 A3025 RMK A01 T01330088  RH  074%=      5-min Rain = 0
KHA2 130531Z 13007KT 13/09 A3025 RMK A01 T01330089  RH  074%=      5-min Rain = 0
KHA2 130532Z 13007KT 13/09 A3025 RMK A01 T01320088  RH  075%=      5-min Rain = 0
KHA2 130533Z 13007KT 13/09 A3024 RMK A01 T01320088  RH  075%=      5-min Rain = 0
KHA2 130534Z 13007KT 13/09 A3024 RMK A01 T01330089  RH  075%=      5-min Rain = 0
KHA2 130535Z 13007KT 13/09 A3024 RMK A01 T01330089  RH  075%=      5-min Rain = 0
KHA2 130536Z 13007KT 13/09 A3024 RMK A01 T01320088  RH  075%=      5-min Rain = 0
KHA2 130537Z 13007KT 13/09 A3024 RMK A01 T01320089  RH  075%=      5-min Rain = 0
KHA2 130538Z 13007KT 13/09 A3024 RMK A01 T01310088  RH  075%=      5-min Rain = 0
KHA2 130539Z 13007KT 13/09 A3024 RMK A01 T01310088  RH  075%=      5-min Rain = 0
KHA2 130540Z 13007KT 13/09 A3024 RMK A01 T01300088  RH  076%=      5-min Rain = 0
KHA2 130541Z 13008KT 13/09 A3024 RMK A01 T01290088  RH  076%=      5-min Rain = 0
KHA2 130542Z 13008KT 13/09 A3024 RMK A01 T01290088  RH  076%=      5-min Rain = 0
KHA2 130543Z 13008KT 13/09 A3024 RMK A01 T01280088  RH  077%=      5-min Rain = 0
KHA2 130544Z 13008KT 13/09 A3024 RMK A01 T01270088  RH  077%=      5-min Rain = 0
KHA2 130545Z 13008KT 13/09 A3024 RMK A01 T01260088  RH  078%=      5-min Rain = 0
KHA2 130546Z 13008KT 13/09 A3024 RMK A01 T01260088  RH  078%=      5-min Rain = 0
KHA2 130547Z 13008KT 13/09 A3024 RMK A01 T01250088  RH  078%=      5-min Rain = 0
KHA2 130548Z 13009KT 13/09 A3024 RMK A01 T01250089  RH  078%=      5-min Rain = 0
KHA2 130549Z 13009KT 13/09 A3024 RMK A01 T01250089  RH  079%=      5-min Rain = 0
KHA2 130550Z 13009KT 13/09 A3024 RMK A01 T01250089  RH  079%=      5-min Rain = 0
KHA2 130551Z 13009KT 13/09 A3024 RMK A01 T01250090  RH  079%=      5-min Rain = 0
KHA2 130552Z 13009KT 13/09 A3024 RMK A01 T01250090  RH  079%=      5-min Rain = 0
KHA2 130553Z 13009KT 13/09 A3024 RMK A01 T01260090  RH  079%=      5-min Rain = 0
KHA2 130554Z 13009KT 13/09 A3023 RMK A01 T01260091  RH  079%=      5-min Rain = 0
KHA2 130555Z 13009KT 13/09 A3023 RMK A01 T01270091  RH  079%=      5-min Rain = 0
KHA2 130556Z 13009KT 13/09 A3023 RMK A01 T01270091  RH  079%=      5-min Rain = 0
KHA2 130557Z 13009KT 13/09 A3023 RMK A01 T01280091  RH  078%=      5-min Rain = 0
KHA2 130558Z 13009KT 13/09 A3023 RMK A01 T01280092  RH  078%=      5-min Rain = 0
KHA2 130559Z 13009KT 13/09 A3023 RMK A01 T01280091  RH  078%=      5-min Rain = 0
KHA2 130600Z 13009KT 13/09 A3023 RMK A01 T01290092  RH  078%=      5-min Rain = 0
KHA2 130601Z 13008KT 13/09 A3023 RMK A01 T01290092  RH  078%=      5-min Rain = 0
KHA2 130602Z 13009KT 13/09 A3023 RMK A01 T01290092  RH  078%=      5-min Rain = 0
KHA2 130603Z 13008KT 13/09 A3023 RMK A01 T01300092  RH  078%=      5-min Rain = 0
KHA2 130604Z 13008KT 13/09 A3023 RMK A01 T01300092  RH  077%=      5-min Rain = 0
KHA2 130605Z 13008KT 13/09 A3023 RMK A01 T01310092  RH  077%=      5-min Rain = 0
KHA2 130606Z 13008KT 13/09 A3023 RMK A01 T01320092  RH  077%=      5-min Rain = 0
KHA2 130607Z 13008KT 13/09 A3023 RMK A01 T01320092  RH  077%=      5-min Rain = 0
KHA2 130608Z 13008KT 13/09 A3023 RMK A01 T01320092  RH  076%=      5-min Rain = 0
KHA2 130609Z 13008KT 13/09 A3023 RMK A01 T01320092  RH  077%=      5-min Rain = 0
KHA2 130610Z 13008KT 13/09 A3023 RMK A01 T01320092  RH  077%=      5-min Rain = 0
KHA2 130611Z 13008KT 13/09 A3023 RMK A01 T01320092  RH  077%=      5-min Rain = 0
KHA2 130612Z 13008KT 13/09 A3023 RMK A01 T01310092  RH  077%=      5-min Rain = 0
KHA2 130613Z 13008KT 13/09 A3023 RMK A01 T01310092  RH  077%=      5-min Rain = 0
KHA2 130614Z 13008KT 13/09 A3023 RMK A01 T01310092  RH  077%=      5-min Rain = 0
KHA2 130615Z 13008KT 13/09 A3023 RMK A01 T01310092  RH  077%=      5-min Rain = 0
KHA2 130616Z 13008KT 13/09 A3023 RMK A01 T01310092  RH  077%=      5-min Rain = 0
KHA2 130617Z 13008KT 13/09 A3023 RMK A01 T01310092  RH  077%=      5-min Rain = 0
KHA2 130618Z 13008KT 13/09 A3023 RMK A01 T01310092  RH  077%=      5-min Rain = 0
KHA2 130619Z 13008KT 13/09 A3023 RMK A01 T01300092  RH  077%=      5-min Rain = 0
KHA2 130620Z 13007KT 13/09 A3023 RMK A01 T01300091  RH  078%=      5-min Rain = 0
KHA2 130621Z 13007KT 13/09 A3023 RMK A01 T01290091  RH  078%=      5-min Rain = 0
KHA2 130622Z 13007KT 13/09 A3023 RMK A01 T01280091  RH  078%=      5-min Rain = 0
KHA2 130623Z 13007KT 13/09 A3023 RMK A01 T01280091  RH  078%=      5-min Rain = 0
KHA2 130624Z 13007KT 13/09 A3023 RMK A01 T01280091  RH  078%=      5-min Rain = 0
KHA2 130625Z 13007KT 13/09 A3023 RMK A01 T01270091  RH  079%=      5-min Rain = 0
KHA2 130626Z 13007KT 13/09 A3023 RMK A01 T01260091  RH  079%=      5-min Rain = 0
KHA2 130627Z 13007KT 13/09 A3023 RMK A01 T01260091  RH  079%=      5-min Rain = 0
KHA2 130628Z 13007KT 13/09 A3023 RMK A01 T01260091  RH  079%=      5-min Rain = 0
KHA2 130629Z 13007KT 13/09 A3023 RMK A01 T01250091  RH  079%=      5-min Rain = 0
KHA2 130630Z 13007KT 13/09 A3023 RMK A01 T01250090  RH  080%=      5-min Rain = 0
KHA2 130631Z 14007KT 12/09 A3023 RMK A01 T01240090  RH  080%=      5-min Rain = 0
KHA2 130632Z 14007KT 12/09 A3023 RMK A01 T01240090  RH  080%=      5-min Rain = 0
KHA2 130633Z 14007KT 12/09 A3023 RMK A01 T01240090  RH  080%=      5-min Rain = 0
KHA2 130634Z 14007KT 12/09 A3023 RMK A01 T01240090  RH  080%=      5-min Rain = 0
KHA2 130635Z 14007KT 12/09 A3023 RMK A01 T01230090  RH  080%=      5-min Rain = 0
KHA2 130636Z 14007KT 12/09 A3023 RMK A01 T01230090  RH  080%=      5-min Rain = 0
KHA2 130637Z 14008KT 12/09 A3023 RMK A01 T01230090  RH  080%=      5-min Rain = 0
KHA2 130638Z 13008KT 12/09 A3023 RMK A01 T01230090  RH  080%=      5-min Rain = 0
KHA2 130639Z 13008KT 12/09 A3023 RMK A01 T01220089  RH  080%=      5-min Rain = 0
KHA2 130640Z 14007KT 12/09 A3023 RMK A01 T01220090  RH  080%=      5-min Rain = 0
KHA2 130641Z 14007KT 12/09 A3023 RMK A01 T01220089  RH  080%=      5-min Rain = 0
KHA2 130642Z 14007KT 12/09 A3023 RMK A01 T01220089  RH  080%=      5-min Rain = 0
KHA2 130643Z 14006KT 12/09 A3023 RMK A01 T01220089  RH  080%=      5-min Rain = 0
KHA2 130644Z 14006KT 12/09 A3023 RMK A01 T01220089  RH  080%=      5-min Rain = 0
KHA2 130645Z 14006KT 12/09 A3023 RMK A01 T01220089  RH  080%=      5-min Rain = 0
KHA2 130646Z 14006KT 12/09 A3023 RMK A01 T01230089  RH  080%=      5-min Rain = 0
KHA2 130647Z 14006KT 12/09 A3023 RMK A01 T01240090  RH  080%=      5-min Rain = 0
KHA2 130648Z 14006KT 12/09 A3023 RMK A01 T01240089  RH  079%=      5-min Rain = 0
KHA2 130649Z 14006KT 12/09 A3023 RMK A01 T01240090  RH  079%=      5-min Rain = 0
KHA2 130650Z 14006KT 13/09 A3023 RMK A01 T01250090  RH  079%=      5-min Rain = 0
KHA2 130651Z 14006KT 13/09 A3023 RMK A01 T01250090  RH  079%=      5-min Rain = 0
KHA2 130652Z 14006KT 13/09 A3023 RMK A01 T01260090  RH  079%=      5-min Rain = 0
KHA2 130653Z 14006KT 13/09 A3023 RMK A01 T01270090  RH  078%=      5-min Rain = 0
KHA2 130654Z 14006KT 13/09 A3023 RMK A01 T01280090  RH  078%=      5-min Rain = 0
KHA2 130655Z 14006KT 13/09 A3023 RMK A01 T01280090  RH  078%=      5-min Rain = 0
KHA2 130656Z 14006KT 13/09 A3023 RMK A01 T01280090  RH  077%=      5-min Rain = 0
KHA2 130657Z 14006KT 13/09 A3023 RMK A01 T01280090  RH  077%=      5-min Rain = 0
KHA2 130658Z 14006KT 13/09 A3024 RMK A01 T01280090  RH  077%=      5-min Rain = 0
KHA2 130659Z 14006KT 13/09 A3024 RMK A01 T01280090  RH  078%=      5-min Rain = 0
KHA2 130700Z 14006KT 13/09 A3023 RMK A01 T01280090  RH  078%=      5-min Rain = 0
KHA2 130701Z 14006KT 13/09 A3023 RMK A01 T01280090  RH  078%=      5-min Rain = 0
KHA2 130702Z 14006KT 13/09 A3023 RMK A01 T01280090  RH  078%=      5-min Rain = 0
KHA2 130703Z 14007KT 13/09 A3023 RMK A01 T01280091  RH  078%=      5-min Rain = 0
KHA2 130704Z 14007KT 13/09 A3023 RMK A01 T01280091  RH  078%=      5-min Rain = 0
KHA2 130705Z 14007KT 13/09 A3023 RMK A01 T01280091  RH  078%=      5-min Rain = 0
KHA2 130706Z 14007KT 13/09 A3023 RMK A01 T01280090  RH  078%=      5-min Rain = 0
KHA2 130707Z 14007KT 13/09 A3023 RMK A01 T01280091  RH  078%=      5-min Rain = 0
KHA2 130708Z 14007KT 13/09 A3023 RMK A01 T01280091  RH  078%=      5-min Rain = 0
KHA2 130709Z 14007KT 13/09 A3023 RMK A01 T01280091  RH  078%=      5-min Rain = 0
KHA2 130710Z 14007KT 13/09 A3023 RMK A01 T01280091  RH  078%=      5-min Rain = 0
KHA2 130711Z 14007KT 13/09 A3023 RMK A01 T01280091  RH  078%=      5-min Rain = 0
KHA2 130712Z 14008KT 13/09 A3023 RMK A01 T01280091  RH  078%=      5-min Rain = 0
KHA2 130713Z 14008KT 13/09 A3023 RMK A01 T01280091  RH  078%=      5-min Rain = 0
KHA2 130714Z 14008KT 13/09 A3023 RMK A01 T01280091  RH  078%=      5-min Rain = 0
KHA2 130715Z 14008KT 13/09 A3023 RMK A01 T01270091  RH  079%=      5-min Rain = 0
KHA2 130716Z 14008KT 13/09 A3023 RMK A01 T01270091  RH  079%=      5-min Rain = 0
KHA2 130717Z 14008KT 13/09 A3023 RMK A01 T01260091  RH  079%=      5-min Rain = 0
KHA2 130718Z 14008KT 13/09 A3023 RMK A01 T01260091  RH  079%=      5-min Rain = 0
KHA2 130719Z 14008KT 13/09 A3023 RMK A01 T01260091  RH  079%=      5-min Rain = 0
KHA2 130720Z 14008KT 13/09 A3023 RMK A01 T01250091  RH  080%=      5-min Rain = 0
KHA2 130721Z 14008KT 13/09 A3023 RMK A01 T01250091  RH  080%=      5-min Rain = 0
KHA2 130722Z 14008KT 13/09 A3023 RMK A01 T01250091  RH  080%=      5-min Rain = 0
KHA2 130723Z 14008KT 12/09 A3023 RMK A01 T01240091  RH  080%=      5-min Rain = 0
KHA2 130724Z 14007KT 12/09 A3023 RMK A01 T01240091  RH  080%=      5-min Rain = 0
KHA2 130725Z 14007KT 12/09 A3023 RMK A01 T01230091  RH  080%=      5-min Rain = 0
KHA2 130726Z 14007KT 12/09 A3023 RMK A01 T01230091  RH  081%=      5-min Rain = 0
KHA2 130727Z 14008KT 12/09 A3023 RMK A01 T01230091  RH  081%=      5-min Rain = 0
KHA2 130728Z 14008KT 12/09 A3023 RMK A01 T01230091  RH  081%=      5-min Rain = 0
KHA2 130729Z 14008KT 12/09 A3022 RMK A01 T01230091  RH  081%=      5-min Rain = 0
KHA2 130730Z 14008KT 12/09 A3023 RMK A01 T01230091  RH  081%=      5-min Rain = 0
KHA2 130731Z 14008KT 12/09 A3022 RMK A01 T01230092  RH  081%=      5-min Rain = 0
KHA2 130732Z 14007KT 12/09 A3022 RMK A01 T01230091  RH  081%=      5-min Rain = 0
KHA2 130733Z 14007KT 12/09 A3022 RMK A01 T01240092  RH  081%=      5-min Rain = 0
KHA2 130734Z 14007KT 12/09 A3022 RMK A01 T01240092  RH  081%=      5-min Rain = 0
KHA2 130735Z 14007KT 12/09 A3022 RMK A01 T01240092  RH  081%=      5-min Rain = 0
KHA2 130736Z 14007KT 12/09 A3022 RMK A01 T01240092  RH  081%=      5-min Rain = 0
KHA2 130737Z 14007KT 12/09 A3022 RMK A01 T01240092  RH  081%=      5-min Rain = 0
KHA2 130738Z 14006KT 12/09 A3022 RMK A01 T01230091  RH  081%=      5-min Rain = 0
KHA2 130739Z 14006KT 12/09 A3022 RMK A01 T01230091  RH  081%=      5-min Rain = 0
KHA2 130740Z 14006KT 12/09 A3023 RMK A01 T01230092  RH  081%=      5-min Rain = 0
KHA2 130741Z 15006KT 12/09 A3023 RMK A01 T01230091  RH  081%=      5-min Rain = 0
KHA2 130742Z 15005KT 12/09 A3023 RMK A01 T01230091  RH  081%=      5-min Rain = 0
KHA2 130743Z 15005KT 12/09 A3023 RMK A01 T01230090  RH  080%=      5-min Rain = 0
KHA2 130744Z 16004KT 12/09 A3023 RMK A01 T01220089  RH  080%=      5-min Rain = 0
KHA2 130745Z 16004KT 12/09 A3023 RMK A01 T01220088  RH  080%=      5-min Rain = 0
KHA2 130746Z 16004KT 12/09 A3023 RMK A01 T01230088  RH  079%=      5-min Rain = 0
KHA2 130747Z 16004KT 12/09 A3023 RMK A01 T01230088  RH  079%=      5-min Rain = 0
KHA2 130748Z 16004KT 12/09 A3023 RMK A01 T01230087  RH  079%=      5-min Rain = 0
KHA2 130749Z 16005KT 12/09 A3022 RMK A01 T01230087  RH  079%=      5-min Rain = 0
KHA2 130750Z 16005KT 12/09 A3022 RMK A01 T01230089  RH  079%=      5-min Rain = 0
KHA2 130751Z 16005KT 12/09 A3022 RMK A01 T01230090  RH  080%=      5-min Rain = 0
KHA2 130752Z 15005KT 12/09 A3022 RMK A01 T01230091  RH  081%=      5-min Rain = 0
KHA2 130753Z 15005KT 12/09 A3022 RMK A01 T01230091  RH  081%=      5-min Rain = 0
KHA2 130754Z 15005KT 12/09 A3022 RMK A01 T01240092  RH  081%=      5-min Rain = 0
KHA2 130755Z 15005KT 12/09 A3022 RMK A01 T01240092  RH  081%=      5-min Rain = 0
KHA2 130756Z 15005KT 12/09 A3022 RMK A01 T01240091  RH  081%=      5-min Rain = 0
KHA2 130757Z 15005KT 12/09 A3022 RMK A01 T01240092  RH  080%=      5-min Rain = 0
KHA2 130758Z 16005KT 12/09 A3022 RMK A01 T01240091  RH  080%=      5-min Rain = 0
KHA2 130759Z 16005KT 12/09 A3022 RMK A01 T01240092  RH  080%=      5-min Rain = 0
KHA2 130800Z 16005KT 12/09 A3022 RMK A01 T01240092  RH  081%=      5-min Rain = 0
KHA2 130801Z 16005KT 12/09 A3022 RMK A01 T01240092  RH  081%=      5-min Rain = 0
KHA2 130802Z 16006KT 12/09 A3022 RMK A01 T01240092  RH  081%=      5-min Rain = 0
KHA2 130803Z 16006KT 12/09 A3022 RMK A01 T01240092  RH  081%=      5-min Rain = 0
KHA2 130804Z 16006KT 12/09 A3022 RMK A01 T01240091  RH  081%=      5-min Rain = 0
KHA2 130805Z 16006KT 12/09 A3022 RMK A01 T01240091  RH  080%=      5-min Rain = 0
KHA2 130806Z 16006KT 12/09 A3022 RMK A01 T01240090  RH  080%=      5-min Rain = 0
KHA2 130807Z 16006KT 12/09 A3022 RMK A01 T01240091  RH  080%=      5-min Rain = 0
KHA2 130808Z 16006KT 12/09 A3022 RMK A01 T01240092  RH  081%=      5-min Rain = 0
KHA2 130809Z 16006KT 12/09 A3022 RMK A01 T01240092  RH  081%=      5-min Rain = 0
KHA2 130810Z 16006KT 12/09 A3022 RMK A01 T01230092  RH  082%=      5-min Rain = 0
KHA2 130811Z 16006KT 12/09 A3022 RMK A01 T01220092  RH  082%=      5-min Rain = 0
KHA2 130812Z 16006KT 12/09 A3022 RMK A01 T01210092  RH  082%=      5-min Rain = 0
KHA2 130813Z 16005KT 12/09 A3022 RMK A01 T01210092  RH  083%=      5-min Rain = 0
KHA2 130814Z 16005KT 12/09 A3022 RMK A01 T01210092  RH  083%=      5-min Rain = 0
KHA2 130815Z 16005KT 12/09 A3022 RMK A01 T01210092  RH  083%=      5-min Rain = 0
KHA2 130816Z 16005KT 12/09 A3023 RMK A01 T01210092  RH  082%=      5-min Rain = 0
KHA2 130817Z 16005KT 12/09 A3023 RMK A01 T01220093  RH  082%=      5-min Rain = 0
KHA2 130818Z 16005KT 12/09 A3023 RMK A01 T01220093  RH  082%=      5-min Rain = 0
KHA2 130819Z 16005KT 12/09 A3023 RMK A01 T01220093  RH  082%=      5-min Rain = 0
KHA2 130820Z 16005KT 12/09 A3023 RMK A01 T01220093  RH  082%=      5-min Rain = 0
KHA2 130821Z 16004KT 12/09 A3023 RMK A01 T01230093  RH  082%=      5-min Rain = 0
KHA2 130822Z 16004KT 12/09 A3023 RMK A01 T01220093  RH  082%=      5-min Rain = 0
KHA2 130823Z 16004KT 12/09 A3023 RMK A01 T01220093  RH  082%=      5-min Rain = 0
KHA2 130824Z 16004KT 12/09 A3023 RMK A01 T01220092  RH  082%=      5-min Rain = 0
KHA2 130825Z 16004KT 12/09 A3023 RMK A01 T01230091  RH  081%=      5-min Rain = 0
KHA2 130826Z 16005KT 12/09 A3023 RMK A01 T01230091  RH  081%=      5-min Rain = 0
KHA2 130827Z 16005KT 12/09 A3023 RMK A01 T01240092  RH  081%=      5-min Rain = 0
KHA2 130828Z 16005KT 12/09 A3023 RMK A01 T01240092  RH  081%=      5-min Rain = 0
KHA2 130829Z 16005KT 12/09 A3023 RMK A01 T01240092  RH  081%=      5-min Rain = 0
KHA2 130830Z 16005KT 13/09 A3023 RMK A01 T01250093  RH  081%=      5-min Rain = 0
KHA2 130831Z 15005KT 13/09 A3022 RMK A01 T01250093  RH  081%=      5-min Rain = 0
KHA2 130832Z 15005KT 13/09 A3022 RMK A01 T01260093  RH  081%=      5-min Rain = 0
KHA2 130833Z 15005KT 13/09 A3022 RMK A01 T01260093  RH  080%=      5-min Rain = 0
KHA2 130834Z 15005KT 13/09 A3022 RMK A01 T01270093  RH  080%=      5-min Rain = 0
KHA2 130835Z 15005KT 13/09 A3023 RMK A01 T01270094  RH  080%=      5-min Rain = 0
KHA2 130836Z 16005KT 13/09 A3023 RMK A01 T01270093  RH  080%=      5-min Rain = 0
KHA2 130837Z 16005KT 13/09 A3023 RMK A01 T01270093  RH  080%=      5-min Rain = 0
KHA2 130838Z 16004KT 13/09 A3023 RMK A01 T01270093  RH  080%=      5-min Rain = 0
KHA2 130839Z 16004KT 13/09 A3023 RMK A01 T01270093  RH  080%=      5-min Rain = 0
KHA2 130840Z 16004KT 13/09 A3023 RMK A01 T01270093  RH  080%=      5-min Rain = 0
KHA2 130841Z 16004KT 13/09 A3023 RMK A01 T01270093  RH  080%=      5-min Rain = 0
KHA2 130842Z 15004KT 13/09 A3023 RMK A01 T01270093  RH  080%=      5-min Rain = 0
KHA2 130843Z 15004KT 13/09 A3023 RMK A01 T01260093  RH  080%=      5-min Rain = 0
KHA2 130844Z 15004KT 13/09 A3023 RMK A01 T01260093  RH  080%=      5-min Rain = 0
KHA2 130845Z 15004KT 13/09 A3023 RMK A01 T01260093  RH  080%=      5-min Rain = 0
KHA2 130846Z 14004KT 13/09 A3023 RMK A01 T01260094  RH  080%=      5-min Rain = 0
KHA2 130847Z 14004KT 13/09 A3023 RMK A01 T01260094  RH  080%=      5-min Rain = 0
KHA2 130848Z 14004KT 13/09 A3023 RMK A01 T01260093  RH  080%=      5-min Rain = 0
KHA2 130849Z 15004KT 13/09 A3023 RMK A01 T01260093  RH  080%=      5-min Rain = 0
KHA2 130850Z 15004KT 13/09 A3023 RMK A01 T01260093  RH  080%=      5-min Rain = 0
KHA2 130851Z 15004KT 13/09 A3023 RMK A01 T01250093  RH  081%=      5-min Rain = 0
KHA2 130852Z 15004KT 13/09 A3023 RMK A01 T01260093  RH  080%=      5-min Rain = 0
KHA2 130853Z 15004KT 13/09 A3023 RMK A01 T01260093  RH  080%=      5-min Rain = 0
KHA2 130854Z 15004KT 13/09 A3023 RMK A01 T01260093  RH  080%=      5-min Rain = 0
KHA2 130855Z 14004KT 13/09 A3023 RMK A01 T01260093  RH  080%=      5-min Rain = 0
KHA2 130856Z 14004KT 13/09 A3023 RMK A01 T01260093  RH  080%=      5-min Rain = 0
KHA2 130857Z 14004KT 13/09 A3023 RMK A01 T01260092  RH  080%=      5-min Rain = 0
KHA2 130858Z 14004KT 13/09 A3023 RMK A01 T01260093  RH  080%=      5-min Rain = 0
KHA2 130859Z 14004KT 13/09 A3023 RMK A01 T01260093  RH  080%=      5-min Rain = 0
KHA2 130900Z 14003KT 13/09 A3023 RMK A01 T01260093  RH  080%=      5-min Rain = 0
KHA2 130901Z 15004KT 13/09 A3023 RMK A01 T01260092  RH  080%=      5-min Rain = 0
KHA2 130902Z 15004KT 13/09 A3023 RMK A01 T01260092  RH  080%=      5-min Rain = 0
KHA2 130903Z 15004KT 13/09 A3023 RMK A01 T01260092  RH  080%=      5-min Rain = 0
KHA2 130904Z 15004KT 13/09 A3023 RMK A01 T01260092  RH  080%=      5-min Rain = 0
KHA2 130905Z 16004KT 13/09 A3023 RMK A01 T01260091  RH  080%=      5-min Rain = 0
KHA2 130906Z 16004KT 13/09 A3023 RMK A01 T01250090  RH  080%=      5-min Rain = 0
KHA2 130907Z 16004KT 12/09 A3023 RMK A01 T01240090  RH  079%=      5-min Rain = 0
KHA2 130908Z 16004KT 12/09 A3023 RMK A01 T01240090  RH  080%=      5-min Rain = 0
KHA2 130909Z 16004KT 12/09 A3023 RMK A01 T01230090  RH  080%=      5-min Rain = 0
KHA2 130910Z 16004KT 12/09 A3023 RMK A01 T01230090  RH  080%=      5-min Rain = 0
KHA2 130911Z 16004KT 12/09 A3023 RMK A01 T01230090  RH  080%=      5-min Rain = 0
KHA2 130912Z 17004KT 12/09 A3023 RMK A01 T01220090  RH  080%=      5-min Rain = 0
KHA2 130913Z 17004KT 12/09 A3023 RMK A01 T01220089  RH  080%=      5-min Rain = 0
KHA2 130914Z 17004KT 12/09 A3023 RMK A01 T01220088  RH  080%=      5-min Rain = 0
KHA2 130915Z 17004KT 12/09 A3023 RMK A01 T01220088  RH  080%=      5-min Rain = 0
KHA2 130916Z 17004KT 12/09 A3023 RMK A01 T01220088  RH  080%=      5-min Rain = 0
KHA2 130917Z 17004KT 12/09 A3023 RMK A01 T01220089  RH  080%=      5-min Rain = 0
KHA2 130918Z 17004KT 12/09 A3023 RMK A01 T01220089  RH  080%=      5-min Rain = 0
KHA2 130919Z 17004KT 12/09 A3023 RMK A01 T01220090  RH  081%=      5-min Rain = 0
KHA2 130920Z 17004KT 12/09 A3023 RMK A01 T01230092  RH  081%=      5-min Rain = 0
KHA2 130921Z 17004KT 12/09 A3023 RMK A01 T01230092  RH  081%=      5-min Rain = 0
KHA2 130922Z 17004KT 12/09 A3023 RMK A01 T01230091  RH  081%=      5-min Rain = 0
KHA2 130923Z 17004KT 12/09 A3023 RMK A01 T01230089  RH  080%=      5-min Rain = 0
KHA2 130924Z 17004KT 12/09 A3023 RMK A01 T01230087  RH  079%=      5-min Rain = 0
KHA2 130925Z 17004KT 12/09 A3023 RMK A01 T01220087  RH  079%=      5-min Rain = 0
KHA2 130926Z 18005KT 12/09 A3023 RMK A01 T01210087  RH  079%=      5-min Rain = 0
KHA2 130927Z 18004KT 12/09 A3023 RMK A01 T01210087  RH  079%=      5-min Rain = 0
KHA2 130928Z 18005KT 12/09 A3023 RMK A01 T01210087  RH  080%=      5-min Rain = 0
KHA2 130929Z 18005KT 12/09 A3023 RMK A01 T01210087  RH  080%=      5-min Rain = 0
KHA2 130930Z 18005KT 12/09 A3023 RMK A01 T01210087  RH  080%=      5-min Rain = 0
KHA2 130931Z 18005KT 12/09 A3023 RMK A01 T01210087  RH  080%=      5-min Rain = 0
KHA2 130932Z 18005KT 12/09 A3023 RMK A01 T01210087  RH  080%=      5-min Rain = 0
KHA2 130933Z 18005KT 12/09 A3023 RMK A01 T01200087  RH  080%=      5-min Rain = 0
KHA2 130934Z 19005KT 12/09 A3023 RMK A01 T01200087  RH  080%=      5-min Rain = 0
KHA2 130935Z 19005KT 12/09 A3023 RMK A01 T01210087  RH  080%=      5-min Rain = 0
KHA2 130936Z 19005KT 12/09 A3023 RMK A01 T01210087  RH  080%=      5-min Rain = 0
KHA2 130937Z 19005KT 12/09 A3023 RMK A01 T01210088  RH  080%=      5-min Rain = 0
KHA2 130938Z 19005KT 12/09 A3023 RMK A01 T01210088  RH  081%=      5-min Rain = 0
KHA2 130939Z 19005KT 12/09 A3023 RMK A01 T01210088  RH  081%=      5-min Rain = 0
KHA2 130940Z 18005KT 12/09 A3023 RMK A01 T01200088  RH  080%=      5-min Rain = 0
KHA2 130941Z 18005KT 12/09 A3023 RMK A01 T01200087  RH  080%=      5-min Rain = 0
KHA2 130942Z 18004KT 12/09 A3023 RMK A01 T01200087  RH  080%=      5-min Rain = 0
KHA2 130943Z 18004KT 12/09 A3023 RMK A01 T01200087  RH  080%=      5-min Rain = 0
KHA2 130944Z 19004KT 12/09 A3023 RMK A01 T01200087  RH  080%=      5-min Rain = 0
KHA2 130945Z 18005KT 12/09 A3023 RMK A01 T01190086  RH  080%=      5-min Rain = 0
KHA2 130946Z 18005KT 12/09 A3023 RMK A01 T01190087  RH  081%=      5-min Rain = 0
KHA2 130947Z 18005KT 12/09 A3023 RMK A01 T01190087  RH  081%=      5-min Rain = 0
KHA2 130948Z 18005KT 12/09 A3023 RMK A01 T01190087  RH  081%=      5-min Rain = 0
KHA2 130949Z 17005KT 12/09 A3023 RMK A01 T01190088  RH  081%=      5-min Rain = 0
KHA2 130950Z 17005KT 12/09 A3023 RMK A01 T01190088  RH  081%=      5-min Rain = 0
KHA2 130951Z 17005KT 12/09 A3023 RMK A01 T01190089  RH  082%=      5-min Rain = 0
KHA2 130952Z 17005KT 12/09 A3023 RMK A01 T01190089  RH  082%=      5-min Rain = 0
KHA2 130953Z 17006KT 12/09 A3023 RMK A01 T01190089  RH  082%=      5-min Rain = 0
KHA2 130954Z 17005KT 12/09 A3023 RMK A01 T01190089  RH  082%=      5-min Rain = 0
KHA2 130955Z 17005KT 12/09 A3023 RMK A01 T01180088  RH  082%=      5-min Rain = 0
KHA2 130956Z 17005KT 12/09 A3023 RMK A01 T01170088  RH  082%=      5-min Rain = 0
KHA2 130957Z 17005KT 12/09 A3023 RMK A01 T01150087  RH  083%=      5-min Rain = 0
KHA2 130958Z 17005KT 12/09 A3023 RMK A01 T01150087  RH  083%=      5-min Rain = 0
KHA2 130959Z 17004KT 11/09 A3023 RMK A01 T01140087  RH  083%=      5-min Rain = 0
KHA2 131000Z 17004KT 11/09 A3023 RMK A01 T01130087  RH  084%=      5-min Rain = 0
KHA2 131001Z 17004KT 11/09 A3023 RMK A01 T01130087  RH  084%=      5-min Rain = 0
KHA2 131002Z 17004KT 11/09 A3023 RMK A01 T01130086  RH  084%=      5-min Rain = 0
KHA2 131003Z 16004KT 11/09 A3023 RMK A01 T01120086  RH  084%=      5-min Rain = 0
KHA2 131004Z 16004KT 11/09 A3023 RMK A01 T01120086  RH  084%=      5-min Rain = 0
KHA2 131005Z 16004KT 11/09 A3023 RMK A01 T01110087  RH  085%=      5-min Rain = 0
KHA2 131006Z 16004KT 11/09 A3023 RMK A01 T01110087  RH  085%=      5-min Rain = 0
KHA2 131007Z 15004KT 11/09 A3023 RMK A01 T01110086  RH  085%=      5-min Rain = 0
KHA2 131008Z 15004KT 11/09 A3023 RMK A01 T01110087  RH  085%=      5-min Rain = 0
KHA2 131009Z 15004KT 11/09 A3023 RMK A01 T01110087  RH  085%=      5-min Rain = 0
KHA2 131010Z 15004KT 11/09 A3023 RMK A01 T01120087  RH  085%=      5-min Rain = 0
KHA2 131011Z 15004KT 11/09 A3023 RMK A01 T01120087  RH  085%=      5-min Rain = 0
KHA2 131012Z 15005KT 11/09 A3023 RMK A01 T01120087  RH  085%=      5-min Rain = 0
KHA2 131013Z 15005KT 11/09 A3023 RMK A01 T01130088  RH  085%=      5-min Rain = 0
KHA2 131014Z 16005KT 11/09 A3023 RMK A01 T01130088  RH  084%=      5-min Rain = 0
KHA2 131015Z 16005KT 11/09 A3023 RMK A01 T01140088  RH  084%=      5-min Rain = 0
KHA2 131016Z 16005KT 12/09 A3023 RMK A01 T01150088  RH  083%=      5-min Rain = 0
KHA2 131017Z 16005KT 12/09 A3023 RMK A01 T01150085  RH  082%=      5-min Rain = 0
KHA2 131018Z 16005KT 12/08 A3023 RMK A01 T01160084  RH  081%=      5-min Rain = 0
KHA2 131019Z 16005KT 12/08 A3023 RMK A01 T01160084  RH  081%=      5-min Rain = 0
KHA2 131020Z 16005KT 12/08 A3023 RMK A01 T01150084  RH  081%=      5-min Rain = 0
KHA2 131021Z 16005KT 12/09 A3023 RMK A01 T01160085  RH  081%=      5-min Rain = 0
KHA2 131022Z 16005KT 12/09 A3023 RMK A01 T01160085  RH  082%=      5-min Rain = 0
KHA2 131023Z 16005KT 12/09 A3023 RMK A01 T01160085  RH  081%=      5-min Rain = 0
KHA2 131024Z 16005KT 12/09 A3023 RMK A01 T01160086  RH  082%=      5-min Rain = 0
KHA2 131025Z 16004KT 12/09 A3023 RMK A01 T01160087  RH  082%=      5-min Rain = 0
KHA2 131026Z 16004KT 12/09 A3023 RMK A01 T01160087  RH  082%=      5-min Rain = 0
KHA2 131027Z 17004KT 12/09 A3023 RMK A01 T01150086  RH  082%=      5-min Rain = 0
KHA2 131028Z 17004KT 12/09 A3023 RMK A01 T01160087  RH  082%=      5-min Rain = 0
KHA2 131029Z 17004KT 12/09 A3023 RMK A01 T01160087  RH  082%=      5-min Rain = 0
KHA2 131030Z 16004KT 12/09 A3023 RMK A01 T01160087  RH  082%=      5-min Rain = 0
KHA2 131031Z 16004KT 12/09 A3023 RMK A01 T01160086  RH  082%=      5-min Rain = 0
KHA2 131032Z 16003KT 12/09 A3023 RMK A01 T01160086  RH  081%=      5-min Rain = 0
KHA2 131033Z 16003KT 12/08 A3023 RMK A01 T01160084  RH  081%=      5-min Rain = 0
KHA2 131034Z 17003KT 12/08 A3023 RMK A01 T01150084  RH  081%=      5-min Rain = 0
KHA2 131035Z 17003KT 12/09 A3023 RMK A01 T01150085  RH  082%=      5-min Rain = 0
KHA2 131036Z 17003KT 12/09 A3023 RMK A01 T01150086  RH  082%=      5-min Rain = 0
KHA2 131037Z 17003KT 12/09 A3023 RMK A01 T01150087  RH  083%=      5-min Rain = 0
KHA2 131038Z 17003KT 12/09 A3023 RMK A01 T01160088  RH  083%=      5-min Rain = 0
KHA2 131039Z 18003KT 12/09 A3023 RMK A01 T01180088  RH  082%=      5-min Rain = 0
KHA2 131040Z 18003KT 12/09 A3023 RMK A01 T01190088  RH  082%=      5-min Rain = 0
KHA2 131041Z 18003KT 12/09 A3023 RMK A01 T01200088  RH  081%=      5-min Rain = 0
KHA2 131042Z 18003KT 12/09 A3023 RMK A01 T01200087  RH  080%=      5-min Rain = 0
KHA2 131043Z 18004KT 12/09 A3023 RMK A01 T01200087  RH  080%=      5-min Rain = 0
KHA2 131044Z 18003KT 12/09 A3023 RMK A01 T01200088  RH  081%=      5-min Rain = 0
KHA2 131045Z 18003KT 12/09 A3023 RMK A01 T01200088  RH  081%=      5-min Rain = 0
KHA2 131046Z 17003KT 12/09 A3023 RMK A01 T01200088  RH  081%=      5-min Rain = 0
KHA2 131047Z 17003KT 12/09 A3023 RMK A01 T01200087  RH  081%=      5-min Rain = 0
KHA2 131048Z 17003KT 12/09 A3023 RMK A01 T01200088  RH  081%=      5-min Rain = 0
KHA2 131049Z 17003KT 12/09 A3023 RMK A01 T01200088  RH  081%=      5-min Rain = 0
KHA2 131050Z 16003KT 12/09 A3023 RMK A01 T01190088  RH  081%=      5-min Rain = 0
KHA2 131051Z 16003KT 12/09 A3023 RMK A01 T01190088  RH  081%=      5-min Rain = 0
KHA2 131052Z 16003KT 12/09 A3023 RMK A01 T01190088  RH  082%=      5-min Rain = 0
KHA2 131053Z 16003KT 12/09 A3023 RMK A01 T01180088  RH  082%=      5-min Rain = 0
KHA2 131054Z 16003KT 12/09 A3023 RMK A01 T01180088  RH  082%=      5-min Rain = 0
KHA2 131055Z 16003KT 12/09 A3023 RMK A01 T01180088  RH  082%=      5-min Rain = 0
KHA2 131056Z 16003KT 12/09 A3023 RMK A01 T01190088  RH  082%=      5-min Rain = 0
KHA2 131057Z 17003KT 12/09 A3023 RMK A01 T01180088  RH  082%=      5-min Rain = 0
KHA2 131058Z 16003KT 12/09 A3023 RMK A01 T01180088  RH  082%=      5-min Rain = 0
KHA2 131059Z 16003KT 12/09 A3023 RMK A01 T01180088  RH  082%=      5-min Rain = 0
KHA2 131100Z 16003KT 12/09 A3023 RMK A01 T01190088  RH  082%=      5-min Rain = 0
KHA2 131101Z 16003KT 12/09 A3023 RMK A01 T01190089  RH  082%=      5-min Rain = 0
KHA2 131102Z 16003KT 12/09 A3023 RMK A01 T01190088  RH  081%=      5-min Rain = 0
KHA2 131103Z 16004KT 12/09 A3023 RMK A01 T01200089  RH  081%=      5-min Rain = 0
KHA2 131104Z 16004KT 12/09 A3023 RMK A01 T01200089  RH  081%=      5-min Rain = 0
KHA2 131105Z 16004KT 12/09 A3023 RMK A01 T01200089  RH  081%=      5-min Rain = 0
KHA2 131106Z 16004KT 12/09 A3023 RMK A01 T01200089  RH  081%=      5-min Rain = 0
KHA2 131107Z 16004KT 12/09 A3023 RMK A01 T01200088  RH  081%=      5-min Rain = 0
KHA2 131108Z 15004KT 12/09 A3023 RMK A01 T01200089  RH  081%=      5-min Rain = 0
KHA2 131109Z 15004KT 12/09 A3023 RMK A01 T01200089  RH  081%=      5-min Rain = 0
KHA2 131110Z 15004KT 12/09 A3023 RMK A01 T01200089  RH  081%=      5-min Rain = 0
KHA2 131111Z 15004KT 12/09 A3023 RMK A01 T01190088  RH  081%=      5-min Rain = 0
KHA2 131112Z 14005KT 12/09 A3023 RMK A01 T01180087  RH  081%=      5-min Rain = 0
KHA2 131113Z 14005KT 12/09 A3023 RMK A01 T01170086  RH  082%=      5-min Rain = 0
KHA2 131114Z 14004KT 12/09 A3023 RMK A01 T01150086  RH  082%=      5-min Rain = 0
KHA2 131115Z 14004KT 11/09 A3023 RMK A01 T01140086  RH  083%=      5-min Rain = 0
KHA2 131116Z 14004KT 11/09 A3023 RMK A01 T01140086  RH  083%=      5-min Rain = 0
KHA2 131117Z 14004KT 11/09 A3023 RMK A01 T01130087  RH  084%=      5-min Rain = 0
KHA2 131118Z 14004KT 11/09 A3023 RMK A01 T01130087  RH  084%=      5-min Rain = 0
KHA2 131119Z 14004KT 11/09 A3023 RMK A01 T01130087  RH  084%=      5-min Rain = 0
KHA2 131120Z 14004KT 11/09 A3023 RMK A01 T01120088  RH  085%=      5-min Rain = 0
KHA2 131121Z 14004KT 11/09 A3023 RMK A01 T01120088  RH  085%=      5-min Rain = 0
KHA2 131122Z 14004KT 11/09 A3023 RMK A01 T01120088  RH  085%=      5-min Rain = 0
KHA2 131123Z 15004KT 11/09 A3023 RMK A01 T01120088  RH  085%=      5-min Rain = 0
KHA2 131124Z 15005KT 11/09 A3023 RMK A01 T01120088  RH  085%=      5-min Rain = 0
KHA2 131125Z 15005KT 11/09 A3023 RMK A01 T01120088  RH  085%=      5-min Rain = 0
KHA2 131126Z 15005KT 11/09 A3023 RMK A01 T01120087  RH  085%=      5-min Rain = 0
KHA2 131127Z 15005KT 11/09 A3023 RMK A01 T01120087  RH  085%=      5-min Rain = 0
KHA2 131128Z 15005KT 11/09 A3023 RMK A01 T01110087  RH  085%=      5-min Rain = 0
KHA2 131129Z 15005KT 11/09 A3023 RMK A01 T01110086  RH  085%=      5-min Rain = 0
KHA2 131130Z 15005KT 11/08 A3023 RMK A01 T01100084  RH  084%=      5-min Rain = 0
KHA2 131131Z 16005KT 11/08 A3023 RMK A01 T01090083  RH  084%=      5-min Rain = 0
KHA2 131132Z 16005KT 11/08 A3023 RMK A01 T01080082  RH  084%=      5-min Rain = 0
KHA2 131133Z 16006KT 11/08 A3023 RMK A01 T01070081  RH  084%=      5-min Rain = 0
KHA2 131134Z 16006KT 11/08 A3023 RMK A01 T01060079  RH  084%=      5-min Rain = 0
KHA2 131135Z 16006KT 11/08 A3023 RMK A01 T01050079  RH  084%=      5-min Rain = 0
KHA2 131136Z 16007KT 11/08 A3023 RMK A01 T01050080  RH  085%=      5-min Rain = 0
KHA2 131137Z 16007KT 11/08 A3023 RMK A01 T01050082  RH  086%=      5-min Rain = 0
KHA2 131138Z 16007KT 10/08 A3023 RMK A01 T01040082  RH  086%=      5-min Rain = 0
KHA2 131139Z 16007KT 10/08 A3023 RMK A01 T01040084  RH  087%=      5-min Rain = 0
KHA2 131140Z 16007KT 11/09 A3022 RMK A01 T01050085  RH  088%=      5-min Rain = 0
KHA2 131141Z 16007KT 11/09 A3022 RMK A01 T01050085  RH  088%=      5-min Rain = 0
KHA2 131142Z 16008KT 11/09 A3022 RMK A01 T01050085  RH  088%=      5-min Rain = 0
KHA2 131143Z 16008KT 10/09 A3022 RMK A01 T01040085  RH  088%=      5-min Rain = 0
KHA2 131144Z 16008KT 10/09 A3022 RMK A01 T01040085  RH  088%=      5-min Rain = 0
KHA2 131145Z 16008KT 10/09 A3022 RMK A01 T01040086  RH  088%=      5-min Rain = 0
KHA2 131146Z 16008KT 11/09 A3022 RMK A01 T01050086  RH  088%=      5-min Rain = 0
KHA2 131147Z 16009KT 11/09 A3022 RMK A01 T01050087  RH  088%=      5-min Rain = 0
KHA2 131148Z 16009KT 11/09 A3022 RMK A01 T01050087  RH  088%=      5-min Rain = 0
KHA2 131149Z 17009KT 11/09 A3022 RMK A01 T01060087  RH  088%=      5-min Rain = 0
KHA2 131150Z 17009KT 11/09 A3022 RMK A01 T01070087  RH  088%=      5-min Rain = 0
KHA2 131151Z 17009KT 11/09 A3022 RMK A01 T01070088  RH  088%=      5-min Rain = 0
KHA2 131152Z 17009KT 11/09 A3022 RMK A01 T01080088  RH  087%=      5-min Rain = 0
KHA2 131153Z 17009KT 11/09 A3022 RMK A01 T01080088  RH  087%=      5-min Rain = 0
KHA2 131154Z 17009KT 11/09 A3022 RMK A01 T01080088  RH  087%=      5-min Rain = 0
KHA2 131155Z 17009KT 11/09 A3022 RMK A01 T01090089  RH  087%=      5-min Rain = 0
KHA2 131156Z 17009KT 11/09 A3022 RMK A01 T01090088  RH  087%=      5-min Rain = 0
KHA2 131157Z 17008KT 11/09 A3022 RMK A01 T01090089  RH  087%=      5-min Rain = 0
KHA2 131158Z 17008KT 11/09 A3022 RMK A01 T01100089  RH  087%=      5-min Rain = 0
KHA2 131159Z 17008KT 11/09 A3022 RMK A01 T01100089  RH  087%=      5-min Rain = 0
KHA2 131200Z 17008KT 11/09 A3022 RMK A01 T01100090  RH  087%=      5-min Rain = 0
KHA2 131201Z 17008KT 11/09 A3022 RMK A01 T01100090  RH  087%=      5-min Rain = 0
KHA2 131202Z 16008KT 11/09 A3022 RMK A01 T01100090  RH  087%=      5-min Rain = 0
KHA2 131203Z 16008KT 11/09 A3022 RMK A01 T01100090  RH  087%=      5-min Rain = 0
KHA2 131204Z 16008KT 11/09 A3022 RMK A01 T01100090  RH  088%=      5-min Rain = 0
KHA2 131205Z 16008KT 11/09 A3022 RMK A01 T01110091  RH  088%=      5-min Rain = 0
KHA2 131206Z 17007KT 11/09 A3023 RMK A01 T01110091  RH  088%=      5-min Rain = 0
KHA2 131207Z 17007KT 11/09 A3023 RMK A01 T01120092  RH  087%=      5-min Rain = 0
KHA2 131208Z 17007KT 11/09 A3023 RMK A01 T01120092  RH  087%=      5-min Rain = 0
KHA2 131209Z 17007KT 11/09 A3023 RMK A01 T01130092  RH  087%=      5-min Rain = 0
KHA2 131210Z 17007KT 11/09 A3023 RMK A01 T01130093  RH  087%=      5-min Rain = 0
KHA2 131211Z 17007KT 11/09 A3023 RMK A01 T01130093  RH  087%=      5-min Rain = 0
KHA2 131212Z 16007KT 11/09 A3023 RMK A01 T01140093  RH  087%=      5-min Rain = 0
KHA2 131213Z 16007KT 12/09 A3023 RMK A01 T01160094  RH  086%=      5-min Rain = 0
KHA2 131214Z 16007KT 12/09 A3022 RMK A01 T01170094  RH  086%=      5-min Rain = 0
KHA2 131215Z 16008KT 12/10 A3022 RMK A01 T01180095  RH  086%=      5-min Rain = 0
KHA2 131216Z 15007KT 12/10 A3022 RMK A01 T01190095  RH  085%=      5-min Rain = 0
KHA2 131217Z 15007KT 12/10 A3022 RMK A01 T01210097  RH  085%=      5-min Rain = 0
KHA2 131218Z 15007KT 12/10 A3022 RMK A01 T01220097  RH  085%=      5-min Rain = 0
KHA2 131219Z 15007KT 12/10 A3022 RMK A01 T01240098  RH  084%=      5-min Rain = 0
KHA2 131220Z 15007KT 13/10 A3022 RMK A01 T01260099  RH  083%=      5-min Rain = 0
KHA2 131221Z 15007KT 13/10 A3022 RMK A01 T01270099  RH  083%=      5-min Rain = 0
KHA2 131222Z 14007KT 13/10 A3022 RMK A01 T01280100  RH  083%=      5-min Rain = 0
KHA2 131223Z 14007KT 13/10 A3022 RMK A01 T01290101  RH  083%=      5-min Rain = 0
KHA2 131224Z 14007KT 13/10 A3022 RMK A01 T01300100  RH  082%=      5-min Rain = 0
KHA2 131225Z 14007KT 13/10 A3022 RMK A01 T01300100  RH  082%=      5-min Rain = 0
KHA2 131226Z 14006KT 13/10 A3022 RMK A01 T01310100  RH  081%=      5-min Rain = 0
KHA2 131227Z 13006KT 13/10 A3022 RMK A01 T01310100  RH  081%=      5-min Rain = 0
KHA2 131228Z 14006KT 13/10 A3022 RMK A01 T01320100  RH  081%=      5-min Rain = 0
KHA2 131229Z 13006KT 13/10 A3022 RMK A01 T01320101  RH  081%=      5-min Rain = 0
KHA2 131230Z 14006KT 13/10 A3022 RMK A01 T01330101  RH  081%=      5-min Rain = 0
KHA2 131231Z 14005KT 13/10 A3022 RMK A01 T01330101  RH  081%=      5-min Rain = 0
KHA2 131232Z 14006KT 13/10 A3022 RMK A01 T01340101  RH  080%=      5-min Rain = 0
KHA2 131233Z 14007KT 14/10 A3022 RMK A01 T01350100  RH  080%=      5-min Rain = 0
KHA2 131234Z 14007KT 14/10 A3022 RMK A01 T01360101  RH  080%=      5-min Rain = 0
KHA2 131235Z 15007KT 14/10 A3022 RMK A01 T01370101  RH  079%=      5-min Rain = 0
KHA2 131236Z 15007KT 14/10 A3022 RMK A01 T01380102  RH  079%=      5-min Rain = 0
KHA2 131237Z 15007KT 14/10 A3022 RMK A01 T01390103  RH  079%=      5-min Rain = 0
KHA2 131238Z 15007KT 14/10 A3022 RMK A01 T01400103  RH  078%=      5-min Rain = 0
KHA2 131239Z 15006KT 14/10 A3022 RMK A01 T01410104  RH  078%=      5-min Rain = 0
KHA2 131240Z 16006KT 14/11 A3022 RMK A01 T01420105  RH  079%=      5-min Rain = 0
KHA2 131241Z 16007KT 14/11 A3022 RMK A01 T01430105  RH  078%=      5-min Rain = 0
KHA2 131242Z 17007KT 14/11 A3022 RMK A01 T01440105  RH  077%=      5-min Rain = 0
KHA2 131243Z 17006KT 15/11 A3023 RMK A01 T01450106  RH  077%=      5-min Rain = 0
KHA2 131244Z 17007KT 15/11 A3023 RMK A01 T01470107  RH  077%=      5-min Rain = 0
KHA2 131245Z 17007KT 15/11 A3023 RMK A01 T01480107  RH  077%=      5-min Rain = 0
KHA2 131246Z 17008KT 15/11 A3023 RMK A01 T01490106  RH  075%=      5-min Rain = 0
KHA2 131247Z 17008KT 15/11 A3023 RMK A01 T01510107  RH  075%=      5-min Rain = 0
KHA2 131248Z 18008KT 15/11 A3023 RMK A01 T01520106  RH  074%=      5-min Rain = 0
KHA2 131249Z 18008KT 15/11 A3023 RMK A01 T01530106  RH  074%=      5-min Rain = 0
KHA2 131250Z 18008KT 15/11 A3023 RMK A01 T01530107  RH  074%=      5-min Rain = 0
KHA2 131251Z 18007KT 15/11 A3023 RMK A01 T01540106  RH  073%=      5-min Rain = 0
KHA2 131252Z 18007KT 16/11 A3023 RMK A01 T01550106  RH  073%=      5-min Rain = 0
KHA2 131253Z 18008KT 16/11 A3023 RMK A01 T01550106  RH  072%=      5-min Rain = 0
KHA2 131254Z 18008KT 16/11 A3023 RMK A01 T01560106  RH  072%=      5-min Rain = 0
KHA2 131255Z 19008KT 16/11 A3023 RMK A01 T01570106  RH  072%=      5-min Rain = 0
KHA2 131256Z 19008KT 16/11 A3023 RMK A01 T01580107  RH  072%=      5-min Rain = 0
KHA2 131257Z 19009KT 16/11 A3023 RMK A01 T01590106  RH  071%=      5-min Rain = 0
KHA2 131258Z 19010KT 16/11 A3023 RMK A01 T01600106  RH  070%=      5-min Rain = 0
KHA2 131259Z 19009KT 16/11 A3023 RMK A01 T01610105  RH  070%=      5-min Rain = 0
KHA2 131300Z 18010KT 16/11 A3023 RMK A01 T01620105  RH  069%=      5-min Rain = 0
KHA2 131301Z 18010KT 16/11 A3023 RMK A01 T01620105  RH  069%=      5-min Rain = 0
KHA2 131302Z 18010KT 16/11 A3023 RMK A01 T01620105  RH  069%=      5-min Rain = 0
KHA2 131303Z 18009KT 16/11 A3023 RMK A01 T01620107  RH  070%=      5-min Rain = 0
KHA2 131304Z 18009KT 16/11 A3023 RMK A01 T01640109  RH  070%=      5-min Rain = 0
KHA2 131305Z 18009KT 17/11 A3023 RMK A01 T01650108  RH  069%=      5-min Rain = 0
KHA2 131306Z 19010KT 17/11 A3023 RMK A01 T01660106  RH  068%=      5-min Rain = 0
KHA2 131307Z 19008KT 17/11 A3023 RMK A01 T01680107  RH  067%=      5-min Rain = 0
KHA2 131308Z 19008KT 17/11 A3024 RMK A01 T01690107  RH  067%=      5-min Rain = 0
KHA2 131309Z 19008KT 17/11 A3024 RMK A01 T01710108  RH  066%=      5-min Rain = 0
KHA2 131310Z 20008KT 17/11 A3024 RMK A01 T01720106  RH  065%=      5-min Rain = 0
KHA2 131311Z 19007KT 17/11 A3024 RMK A01 T01730107  RH  065%=      5-min Rain = 0
KHA2 131312Z 20007KT 17/11 A3024 RMK A01 T01740107  RH  065%=      5-min Rain = 0
KHA2 131313Z 18009KT 18/11 A3024 RMK A01 T01750108  RH  065%=      5-min Rain = 0
KHA2 131314Z 20009KT 18/11 A3024 RMK A01 T01750105  RH  064%=      5-min Rain = 0
KHA2 131315Z 19011KT 18/10 A3024 RMK A01 T01750103  RH  063%=      5-min Rain = 0
KHA2 131316Z 18010KT 18/10 A3024 RMK A01 T01760104  RH  063%=      5-min Rain = 0
KHA2 131317Z 19012KT 18/11 A3024 RMK A01 T01760105  RH  063%=      5-min Rain = 0
KHA2 131318Z 19012KT 18/10 A3024 RMK A01 T01760102  RH  062%=      5-min Rain = 0
KHA2 131319Z 18011KT 18/10 A3024 RMK A01 T01760100  RH  061%=      5-min Rain = 0
KHA2 131320Z 18012KT 18/10 A3024 RMK A01 T01750101  RH  062%=      5-min Rain = 0
KHA2 131321Z 18012KT 17/10 A3024 RMK A01 T01730100  RH  062%=      5-min Rain = 0
KHA2 131322Z 18011KT 17/10 A3024 RMK A01 T01720100  RH  063%=      5-min Rain = 0
KHA2 131323Z 18009KT 17/10 A3024 RMK A01 T01710101  RH  063%=      5-min Rain = 0
KHA2 131324Z 19008KT 17/10 A3024 RMK A01 T01690101  RH  064%=      5-min Rain = 0
KHA2 131325Z 19009KT 17/10 A3024 RMK A01 T01690103  RH  065%=      5-min Rain = 0
KHA2 131326Z 19010KT 17/10 A3024 RMK A01 T01690103  RH  065%=      5-min Rain = 0
KHA2 131327Z 19010KT 17/10 A3024 RMK A01 T01690101  RH  064%=      5-min Rain = 0
KHA2 131328Z 19011KT 17/10 A3024 RMK A01 T01700100  RH  063%=      5-min Rain = 0
KHA2 131329Z 19011KT 17/10 A3024 RMK A01 T01700098  RH  063%=      5-min Rain = 0
KHA2 131330Z 18011KT 17/10 A3024 RMK A01 T01710100  RH  063%=      5-min Rain = 0
KHA2 131331Z 19010KT 17/10 A3024 RMK A01 T01710100  RH  063%=      5-min Rain = 0
KHA2 131332Z 19010KT 17/10 A3024 RMK A01 T01710100  RH  063%=      5-min Rain = 0
KHA2 131333Z 19011KT 17/10 A3024 RMK A01 T01720101  RH  063%=      5-min Rain = 0
KHA2 131334Z 19010KT 17/10 A3024 RMK A01 T01710100  RH  063%=      5-min Rain = 0
KHA2 131335Z 19011KT 17/10 A3024 RMK A01 T01710101  RH  063%=      5-min Rain = 0
KHA2 131336Z 19011KT 17/10 A3024 RMK A01 T01710101  RH  063%=      5-min Rain = 0
KHA2 131337Z 19010KT 17/10 A3024 RMK A01 T01710101  RH  063%=      5-min Rain = 0
KHA2 131338Z 19010KT 17/10 A3024 RMK A01 T01720101  RH  063%=      5-min Rain = 0
KHA2 131339Z 19011KT 17/10 A3024 RMK A01 T01740103  RH  063%=      5-min Rain = 0
KHA2 131340Z 19011KT 18/10 A3024 RMK A01 T01750101  RH  062%=      5-min Rain = 0
KHA2 131341Z 19012KT 17/10 A3024 RMK A01 T01740101  RH  062%=      5-min Rain = 0
KHA2 131342Z 19011KT 18/10 A3024 RMK A01 T01750100  RH  062%=      5-min Rain = 0
KHA2 131343Z 18011KT 18/10 A3024 RMK A01 T01750099  RH  061%=      5-min Rain = 0
KHA2 131344Z 19011KT 18/10 A3024 RMK A01 T01760101  RH  061%=      5-min Rain = 0
KHA2 131345Z 19012KT 18/10 A3024 RMK A01 T01770101  RH  061%=      5-min Rain = 0
KHA2 131346Z 19012KT 18/10 A3024 RMK A01 T01790099  RH  059%=      5-min Rain = 0
KHA2 131347Z 19013KT 18/10 A3024 RMK A01 T01830100  RH  059%=      5-min Rain = 0
KHA2 131348Z 18014KT 19/10 A3024 RMK A01 T01860101  RH  058%=      5-min Rain = 0
KHA2 131349Z 19012KT 19/10 A3024 RMK A01 T01880100  RH  057%=      5-min Rain = 0
KHA2 131350Z 18011KT 19/11 A3024 RMK A01 T01910105  RH  057%=      5-min Rain = 0
KHA2 131351Z 18017KT 19/10 A3023 RMK A01 T01930102  RH  056%=      5-min Rain = 0
KHA2 131352Z 18015KT 19/10 A3023 RMK A01 T01930098  RH  054%=      5-min Rain = 0
KHA2 131353Z 18014KT 19/10 A3023 RMK A01 T01940100  RH  055%=      5-min Rain = 0
KHA2 131354Z 18014KT 20/10 A3023 RMK A01 T01960102  RH  055%=      5-min Rain = 0
KHA2 131355Z 18016KT 20/10 A3023 RMK A01 T01960099  RH  053%=      5-min Rain = 0
KHA2 131356Z 19015KT 19/10 A3023 RMK A01 T01940099  RH  054%=      5-min Rain = 0
KHA2 131357Z 19018KT 19/10 A3023 RMK A01 T01930098  RH  054%=      5-min Rain = 0
KHA2 131358Z 19017KT 19/10 A3023 RMK A01 T01910097  RH  054%=      5-min Rain = 0
KHA2 131359Z 19015KT 19/10 A3023 RMK A01 T01900096  RH  054%=      5-min Rain = 0
KHA2 131400Z 19017KT 19/10 A3023 RMK A01 T01890096  RH  055%=      5-min Rain = 0
KHA2 131401Z 18018KT 19/10 A3023 RMK A01 T01880096  RH  055%=      5-min Rain = 0
KHA2 131402Z 19014KT 19/10 A3023 RMK A01 T01860096  RH  055%=      5-min Rain = 0
KHA2 131403Z 18017KT 19/10 A3023 RMK A01 T01850097  RH  056%=      5-min Rain = 0
KHA2 131404Z 18016KT 19/10 A3023 RMK A01 T01850095  RH  055%=      5-min Rain = 0
KHA2 131405Z 18016KT 18/10 A3023 RMK A01 T01840095  RH  056%=      5-min Rain = 0
KHA2 131406Z 18014KT 18/10 A3023 RMK A01 T01840096  RH  056%=      5-min Rain = 0
KHA2 131407Z 18014KT 18/10 A3023 RMK A01 T01840096  RH  056%=      5-min Rain = 0
KHA2 131408Z 19013KT 19/10 A3023 RMK A01 T01850097  RH  056%=      5-min Rain = 0
KHA2 131409Z 19015KT 19/10 A3023 RMK A01 T01890100  RH  056%=      5-min Rain = 0
KHA2 131410Z 19015KT 19/10 A3023 RMK A01 T01910099  RH  055%=      5-min Rain = 0
KHA2 131411Z 19017KT 19/10 A3023 RMK A01 T01940098  RH  053%=      5-min Rain = 0
KHA2 131412Z 18017KT 20/10 A3023 RMK A01 T01950095  RH  052%=      5-min Rain = 0
KHA2 131413Z 18016KT 20/10 A3023 RMK A01 T01950096  RH  053%=      5-min Rain = 0
KHA2 131414Z 18017KT 19/09 A3023 RMK A01 T01940094  RH  052%=      5-min Rain = 0
KHA2 131415Z 18018KT 19/09 A3023 RMK A01 T01920091  RH  052%=      5-min Rain = 0
KHA2 131416Z 18018KT 19/09 A3023 RMK A01 T01900091  RH  052%=      5-min Rain = 0
KHA2 131417Z 18017KT 19/09 A3023 RMK A01 T01900092  RH  053%=      5-min Rain = 0
KHA2 131418Z 18016KT 19/10 A3023 RMK A01 T01930096  RH  053%=      5-min Rain = 0
KHA2 131419Z 18017KT 20/10 A3023 RMK A01 T01950096  RH  053%=      5-min Rain = 0
KHA2 131420Z 18017KT 20/10 A3023 RMK A01 T01960095  RH  052%=      5-min Rain = 0
KHA2 131421Z 18018KT 20/09 A3023 RMK A01 T01970094  RH  051%=      5-min Rain = 0
KHA2 131422Z 18017KT 20/10 A3023 RMK A01 T01970095  RH  052%=      5-min Rain = 0
KHA2 131423Z 18017KT 20/10 A3023 RMK A01 T01970095  RH  051%=      5-min Rain = 0
KHA2 131424Z 18014G19KT 20/10 A3023 RMK A01 T01970096  RH  052%=      5-min Rain = 0
KHA2 131425Z 18015KT 20/10 A3023 RMK A01 T01970095  RH  052%=      5-min Rain = 0
KHA2 131426Z 18017KT 20/10 A3023 RMK A01 T01970095  RH  052%=      5-min Rain = 0
KHA2 131427Z 18015KT 20/10 A3023 RMK A01 T01980096  RH  052%=      5-min Rain = 0
KHA2 131428Z 18017KT 20/10 A3023 RMK A01 T01990095  RH  051%=      5-min Rain = 0
KHA2 131429Z 19017KT 20/09 A3023 RMK A01 T01980094  RH  051%=      5-min Rain = 0
KHA2 131430Z 18017KT 20/09 A3023 RMK A01 T01970093  RH  051%=      5-min Rain = 0
KHA2 131431Z 18016KT 19/09 A3023 RMK A01 T01940093  RH  052%=      5-min Rain = 0
KHA2 131432Z 18018KT 19/09 A3023 RMK A01 T01940094  RH  052%=      5-min Rain = 0
KHA2 131433Z 18013KT 19/09 A3023 RMK A01 T01940094  RH  052%=      5-min Rain = 0
KHA2 131434Z 18014KT 20/10 A3023 RMK A01 T01960096  RH  052%=      5-min Rain = 0
KHA2 131435Z 18013G18KT 20/10 A3023 RMK A01 T01970097  RH  052%=      5-min Rain = 0
KHA2 131436Z 18016KT 20/10 A3023 RMK A01 T01990096  RH  051%=      5-min Rain = 0
KHA2 131437Z 18015KT 20/10 A3023 RMK A01 T02000096  RH  051%=      5-min Rain = 0
KHA2 131438Z 18014KT 20/10 A3023 RMK A01 T02000096  RH  051%=      5-min Rain = 0
KHA2 131439Z 18015KT 20/10 A3023 RMK A01 T02010097  RH  051%=      5-min Rain = 0
KHA2 131440Z 18014G19KT 20/10 A3023 RMK A01 T02030098  RH  051%=      5-min Rain = 0
KHA2 131441Z 18014KT 21/10 A3023 RMK A01 T02050099  RH  051%=      5-min Rain = 0
KHA2 131442Z 18017KT 21/10 A3023 RMK A01 T02060098  RH  050%=      5-min Rain = 0
KHA2 131443Z 18018KT 20/10 A3023 RMK A01 T02040095  RH  049%=      5-min Rain = 0
KHA2 131444Z 19017KT 20/09 A3023 RMK A01 T02030094  RH  050%=      5-min Rain = 0
KHA2 131445Z 19016KT 20/10 A3023 RMK A01 T02030096  RH  050%=      5-min Rain = 0
KHA2 131446Z 18016KT 20/10 A3023 RMK A01 T02030097  RH  051%=      5-min Rain = 0
KHA2 131447Z 17016KT 20/10 A3023 RMK A01 T02030097  RH  050%=      5-min Rain = 0
KHA2 131448Z 18015G20KT 20/10 A3023 RMK A01 T02040097  RH  050%=      5-min Rain = 0
KHA2 131449Z 18014KT 20/10 A3023 RMK A01 T02040097  RH  050%=      5-min Rain = 0
KHA2 131450Z 17016KT 21/10 A3023 RMK A01 T02050100  RH  051%=      5-min Rain = 0
KHA2 131451Z 18017KT 21/10 A3023 RMK A01 T02060098  RH  050%=      5-min Rain = 0
KHA2 131452Z 17017KT 21/10 A3023 RMK A01 T02060099  RH  050%=      5-min Rain = 0
KHA2 131453Z 18015KT 21/10 A3023 RMK A01 T02060096  RH  049%=      5-min Rain = 0
KHA2 131454Z 18013KT 21/10 A3023 RMK A01 T02070100  RH  050%=      5-min Rain = 0
KHA2 131455Z 19015KT 21/10 A3023 RMK A01 T02100102  RH  050%=      5-min Rain = 0
KHA2 131456Z 18016KT 21/10 A3023 RMK A01 T02120099  RH  048%=      5-min Rain = 0
KHA2 131457Z 18016KT 21/10 A3023 RMK A01 T02120099  RH  048%=      5-min Rain = 0
KHA2 131458Z 19019KT 21/10 A3022 RMK A01 T02130096  RH  047%=      5-min Rain = 0
KHA2 131459Z 18016KT 21/10 A3022 RMK A01 T02120095  RH  047%=      5-min Rain = 0
KHA2 131500Z 18014G19KT 21/10 A3022 RMK A01 T02120100  RH  049%=      5-min Rain = 0
KHA2 131501Z 18020KT 21/10 A3022 RMK A01 T02140096  RH  047%=      5-min Rain = 0
KHA2 131502Z 18017KT 21/10 A3022 RMK A01 T02140095  RH  047%=      5-min Rain = 0
KHA2 131503Z 19015G21KT 21/10 A3022 RMK A01 T02140096  RH  047%=      5-min Rain = 0
KHA2 131504Z 19019KT 21/09 A3022 RMK A01 T02140094  RH  046%=      5-min Rain = 0
KHA2 131505Z 18016KT 21/10 A3022 RMK A01 T02140095  RH  047%=      5-min Rain = 0
KHA2 131506Z 18014KT 22/10 A3022 RMK A01 T02150099  RH  048%=      5-min Rain = 0
KHA2 131507Z 17016KT 22/10 A3022 RMK A01 T02180101  RH  047%=      5-min Rain = 0
KHA2 131508Z 17016KT 22/10 A3022 RMK A01 T02190099  RH  046%=      5-min Rain = 0
KHA2 131509Z 19015KT 22/10 A3022 RMK A01 T02190099  RH  046%=      5-min Rain = 0
KHA2 131510Z 18015KT 22/10 A3022 RMK A01 T02190102  RH  047%=      5-min Rain = 0
KHA2 131511Z 17016KT 22/10 A3022 RMK A01 T02210098  RH  045%=      5-min Rain = 0
KHA2 131512Z 17017KT 22/10 A3022 RMK A01 T02210098  RH  046%=      5-min Rain = 0
KHA2 131513Z 18016KT 22/10 A3022 RMK A01 T02210096  RH  045%=      5-min Rain = 0
KHA2 131514Z 19017KT 22/10 A3022 RMK A01 T02190097  RH  046%=      5-min Rain = 0
KHA2 131515Z 19015KT 22/10 A3022 RMK A01 T02190096  RH  045%=      5-min Rain = 0
KHA2 131516Z 18015KT 22/10 A3022 RMK A01 T02200099  RH  046%=      5-min Rain = 0
KHA2 131517Z 17017KT 22/10 A3022 RMK A01 T02220098  RH  045%=      5-min Rain = 0
KHA2 131518Z 17018KT 22/10 A3022 RMK A01 T02230098  RH  045%=      5-min Rain = 0
KHA2 131519Z 18016KT 22/10 A3022 RMK A01 T02220097  RH  045%=      5-min Rain = 0
KHA2 131520Z 17016KT 22/10 A3022 RMK A01 T02220096  RH  045%=      5-min Rain = 0
KHA2 131521Z 17018KT 22/10 A3022 RMK A01 T02220095  RH  044%=      5-min Rain = 0
KHA2 131522Z 17018KT 22/10 A3022 RMK A01 T02230096  RH  045%=      5-min Rain = 0
KHA2 131523Z 17017KT 22/10 A3022 RMK A01 T02230097  RH  045%=      5-min Rain = 0
KHA2 131524Z 17019KT 22/10 A3022 RMK A01 T02220095  RH  044%=      5-min Rain = 0
KHA2 131525Z 17017KT 22/10 A3022 RMK A01 T02220097  RH  045%=      5-min Rain = 0
KHA2 131526Z 17018KT 22/10 A3022 RMK A01 T02230096  RH  045%=      5-min Rain = 0
KHA2 131527Z 18016KT 22/10 A3022 RMK A01 T02230096  RH  044%=      5-min Rain = 0
KHA2 131528Z 17020KT 22/10 A3022 RMK A01 T02240098  RH  045%=      5-min Rain = 0
KHA2 131529Z 18019KT 22/10 A3022 RMK A01 T02240095  RH  044%=      5-min Rain = 0
KHA2 131530Z 18016KT 22/10 A3022 RMK A01 T02220097  RH  045%=      5-min Rain = 0
KHA2 131531Z 17015G20KT 22/10 A3022 RMK A01 T02230099  RH  045%=      5-min Rain = 0
KHA2 131532Z 17018KT 23/10 A3022 RMK A01 T02260100  RH  045%=      5-min Rain = 0
KHA2 131533Z 18017KT 23/10 A3022 RMK A01 T02270098  RH  044%=      5-min Rain = 0
KHA2 131534Z 18021KT 23/10 A3022 RMK A01 T02270098  RH  044%=      5-min Rain = 0
KHA2 131535Z 19018KT 23/10 A3022 RMK A01 T02270098  RH  044%=      5-min Rain = 0
KHA2 131536Z 19020KT 23/10 A3022 RMK A01 T02270096  RH  043%=      5-min Rain = 0
KHA2 131537Z 18018KT 23/10 A3022 RMK A01 T02260097  RH  044%=      5-min Rain = 0
KHA2 131538Z 18019KT 23/10 A3022 RMK A01 T02260098  RH  044%=      5-min Rain = 0
KHA2 131539Z 18017KT 23/10 A3021 RMK A01 T02250098  RH  044%=      5-min Rain = 0
KHA2 131540Z 19016G21KT 23/10 A3021 RMK A01 T02270103  RH  045%=      5-min Rain = 0
KHA2 131541Z 18017KT 23/10 A3021 RMK A01 T02300102  RH  044%=      5-min Rain = 0
KHA2 131542Z 18019KT 23/10 A3021 RMK A01 T02290100  RH  044%=      5-min Rain = 0
KHA2 131543Z 19020KT 23/10 A3021 RMK A01 T02270098  RH  044%=      5-min Rain = 0
KHA2 131544Z 19019KT 23/10 A3021 RMK A01 T02260099  RH  044%=      5-min Rain = 0
KHA2 131545Z 19020KT 23/10 A3021 RMK A01 T02280099  RH  044%=      5-min Rain = 0
KHA2 131546Z 19019KT 23/10 A3021 RMK A01 T02270099  RH  044%=      5-min Rain = 0
KHA2 131547Z 19016KT 23/10 A3021 RMK A01 T02270101  RH  045%=      5-min Rain = 0
KHA2 131548Z 19017KT 23/10 A3021 RMK A01 T02300103  RH  045%=      5-min Rain = 0
KHA2 131549Z 18016KT 23/10 A3021 RMK A01 T02310102  RH  044%=      5-min Rain = 0
KHA2 131550Z 17017KT 23/11 A3021 RMK A01 T02310105  RH  045%=      5-min Rain = 0
KHA2 131551Z 18017KT 23/11 A3021 RMK A01 T02300105  RH  045%=      5-min Rain = 0
KHA2 131552Z 19018KT 23/10 A3021 RMK A01 T02310103  RH  044%=      5-min Rain = 0
KHA2 131553Z 19017KT 23/10 A3021 RMK A01 T02300100  RH  044%=      5-min Rain = 0
KHA2 131554Z 19016KT 23/10 A3021 RMK A01 T02300101  RH  044%=      5-min Rain = 0
KHA2 131555Z 18017G24KT 23/10 A3021 RMK A01 T02300103  RH  045%=      5-min Rain = 0
KHA2 131556Z 17020KT 23/10 A3021 RMK A01 T02300100  RH  044%=      5-min Rain = 0
KHA2 131557Z 17017KT 23/10 A3021 RMK A01 T02300101  RH  044%=      5-min Rain = 0
KHA2 131558Z 18017KT 23/10 A3021 RMK A01 T02320104  RH  044%=      5-min Rain = 0
KHA2 131559Z 18015KT 24/11 A3021 RMK A01 T02350105  RH  044%=      5-min Rain = 0
KHA2 131600Z 19015KT 24/11 A3021 RMK A01 T02390107  RH  044%=      5-min Rain = 0
KHA2 131601Z 18016KT 24/10 A3021 RMK A01 T02400102  RH  042%=      5-min Rain = 0
KHA2 131602Z 19015G20KT 24/10 A3021 RMK A01 T02360101  RH  043%=      5-min Rain = 0
KHA2 131603Z 19019G24KT 24/10 A3021 RMK A01 T02350101  RH  043%=      5-min Rain = 0
KHA2 131604Z 19019G24KT 23/10 A3021 RMK A01 T02310096  RH  042%=      5-min Rain = 0
KHA2 131605Z 18019KT 23/10 A3021 RMK A01 T02300096  RH  043%=      5-min Rain = 0
KHA2 131606Z 18016KT 23/10 A3021 RMK A01 T02300097  RH  043%=      5-min Rain = 0
KHA2 131607Z 18018KT 23/10 A3021 RMK A01 T02290097  RH  043%=      5-min Rain = 0
KHA2 131608Z 18019KT 23/10 A3021 RMK A01 T02270098  RH  044%=      5-min Rain = 0
KHA2 131609Z 18018KT 23/10 A3021 RMK A01 T02270097  RH  044%=      5-min Rain = 0
KHA2 131610Z 19020G26KT 23/10 A302 RMK A01 T02280098  RH  044%=      5-min Rain = 0
KHA2 131611Z 18019KT 23/10 A3021 RMK A01 T02280097  RH  043%=      5-min Rain = 0
KHA2 131612Z 18017KT 23/10 A3021 RMK A01 T02270098  RH  044%=      5-min Rain = 0
KHA2 131613Z 18020KT 23/10 A3021 RMK A01 T02280099  RH  044%=      5-min Rain = 0
KHA2 131614Z 19016KT 23/10 A3021 RMK A01 T02300101  RH  044%=      5-min Rain = 0
KHA2 131615Z 18015KT 23/10 A302 RMK A01 T02340104  RH  044%=      5-min Rain = 0
KHA2 131616Z 18016KT 24/11 A302 RMK A01 T02380105  RH  043%=      5-min Rain = 0
KHA2 131617Z 19017KT 24/10 A302 RMK A01 T02380100  RH  042%=      5-min Rain = 0
KHA2 131618Z 19017KT 24/10 A302 RMK A01 T02390101  RH  042%=      5-min Rain = 0
KHA2 131619Z 20016KT 24/10 A302 RMK A01 T02400100  RH  041%=      5-min Rain = 0
KHA2 131620Z 19016KT 24/10 A302 RMK A01 T02400101  RH  041%=      5-min Rain = 0
KHA2 131621Z 18014KT 24/10 A302 RMK A01 T02420103  RH  041%=      5-min Rain = 0
KHA2 131622Z 18013KT 24/11 A302 RMK A01 T02430107  RH  042%=      5-min Rain = 0
KHA2 131623Z 19016KT 25/11 A302 RMK A01 T02470105  RH  041%=      5-min Rain = 0
KHA2 131624Z 18021KT 25/10 A302 RMK A01 T02480103  RH  040%=      5-min Rain = 0
KHA2 131625Z 18021KT 24/10 A302 RMK A01 T02440100  RH  040%=      5-min Rain = 0
KHA2 131626Z 18017KT 24/10 A302 RMK A01 T02430103  RH  041%=      5-min Rain = 0
KHA2 131627Z 18015KT 25/10 A302 RMK A01 T02460102  RH  040%=      5-min Rain = 0
KHA2 131628Z 19015KT 25/10 A302 RMK A01 T02450103  RH  041%=      5-min Rain = 0
KHA2 131629Z 21015G21KT 25/10 A302 RMK A01 T02460102  RH  040%=      5-min Rain = 0
KHA2 131630Z 20018KT 25/10 A302 RMK A01 T02490102  RH  039%=      5-min Rain = 0
KHA2 131631Z 20018KT 25/10 A302 RMK A01 T02490098  RH  038%=      5-min Rain = 0
KHA2 131632Z 18016KT 25/10 A302 RMK A01 T02490103  RH  040%=      5-min Rain = 0
KHA2 131633Z 19017G22KT 25/10 A302 RMK A01 T02490101  RH  039%=      5-min Rain = 0
KHA2 131634Z 19018KT 25/10 A302 RMK A01 T02470101  RH  040%=      5-min Rain = 0
KHA2 131635Z 19020KT 25/10 A302 RMK A01 T02470099  RH  039%=      5-min Rain = 0
KHA2 131636Z 18021KT 25/10 A302 RMK A01 T02450097  RH  039%=      5-min Rain = 0
KHA2 131637Z 19018KT 24/10 A302 RMK A01 T02430100  RH  040%=      5-min Rain = 0
KHA2 131638Z 19015KT 24/10 A302 RMK A01 T02430099  RH  040%=      5-min Rain = 0
KHA2 131639Z 19014KT 24/10 A302 RMK A01 T02440099  RH  040%=      5-min Rain = 0
KHA2 131640Z 17019G24KT 25/11 A302 RMK A01 T02480105  RH  041%=      5-min Rain = 0
KHA2 131641Z 19021KT 25/10 A302 RMK A01 T02480102  RH  040%=      5-min Rain = 0
KHA2 131642Z 20021KT 25/10 A302 RMK A01 T02450099  RH  040%=      5-min Rain = 0
KHA2 131643Z 18017KT 24/10 A302 RMK A01 T02420100  RH  040%=      5-min Rain = 0
KHA2 131644Z 19017KT 24/10 A302 RMK A01 T02420101  RH  041%=      5-min Rain = 0
KHA2 131645Z 20016KT 24/10 A302 RMK A01 T02430102  RH  041%=      5-min Rain = 0
KHA2 131646Z 19018KT 24/10 A302 RMK A01 T02440100  RH  040%=      5-min Rain = 0
KHA2 131647Z 18019KT 24/10 A302 RMK A01 T02420101  RH  041%=      5-min Rain = 0
KHA2 131648Z 18019KT 24/10 A302 RMK A01 T02410102  RH  041%=      5-min Rain = 0
KHA2 131649Z 19018KT 24/10 A302 RMK A01 T02430100  RH  041%=      5-min Rain = 0
KHA2 131650Z 20019KT 25/10 A3019 RMK A01 T02450104  RH  041%=      5-min Rain = 0
KHA2 131651Z 20017KT 25/11 A3019 RMK A01 T02470106  RH  041%=      5-min Rain = 0
KHA2 131652Z 20018G23KT 25/11 A3019 RMK A01 T02520106  RH  040%=      5-min Rain = 0
KHA2 131653Z 19020G25KT 25/10 A3019 RMK A01 T02520104  RH  039%=      5-min Rain = 0
KHA2 131654Z 19021KT 25/10 A3019 RMK A01 T02510104  RH  040%=      5-min Rain = 0
KHA2 131655Z 19020KT 25/10 A3019 RMK A01 T02500102  RH  039%=      5-min Rain = 0
KHA2 131656Z 19019KT 25/10 A3019 RMK A01 T02500102  RH  039%=      5-min Rain = 0
KHA2 131657Z 20018KT 25/11 A3019 RMK A01 T02530109  RH  040%=      5-min Rain = 0
KHA2 131658Z 20016G22KT 25/11 A3019 RMK A01 T02540109  RH  040%=      5-min Rain = 0
KHA2 131659Z 21019KT 25/11 A3019 RMK A01 T02530106  RH  040%=      5-min Rain = 0
KHA2 131700Z 20015KT 25/11 A3019 RMK A01 T02530106  RH  040%=      5-min Rain = 0
KHA2 131701Z 20022KT 26/11 A3019 RMK A01 T02560113  RH  041%=      5-min Rain = 0
KHA2 131702Z 20021KT 26/11 A3019 RMK A01 T02550110  RH  040%=      5-min Rain = 0
KHA2 131703Z 19021KT 25/11 A3019 RMK A01 T02530109  RH  041%=      5-min Rain = 0
KHA2 131704Z 19017KT 25/11 A3019 RMK A01 T02500109  RH  041%=      5-min Rain = 0
KHA2 131705Z 19018KT 25/11 A3019 RMK A01 T02510111  RH  042%=      5-min Rain = 0
KHA2 131706Z 19020KT 26/11 A3019 RMK A01 T02560112  RH  040%=      5-min Rain = 0
KHA2 131707Z 19017G22KT 26/11 A3019 RMK A01 T02580111  RH  040%=      5-min Rain = 0
KHA2 131708Z 18022KT 26/11 A3019 RMK A01 T02570108  RH  039%=      5-min Rain = 0
KHA2 131709Z 20018KT 25/11 A3019 RMK A01 T02520107  RH  040%=      5-min Rain = 0
KHA2 131710Z 20017KT 25/11 A3019 RMK A01 T02540107  RH  040%=      5-min Rain = 0
KHA2 131711Z 19021KT 26/11 A3019 RMK A01 T02560113  RH  041%=      5-min Rain = 0
KHA2 131712Z 19022KT 26/11 A3019 RMK A01 T02570111  RH  040%=      5-min Rain = 0
KHA2 131713Z 19018KT 26/11 A3019 RMK A01 T02580111  RH  040%=      5-min Rain = 0
KHA2 131714Z 20015KT 26/11 A3019 RMK A01 T02560109  RH  040%=      5-min Rain = 0
KHA2 131715Z 20020KT 26/11 A3019 RMK A01 T02580113  RH  040%=      5-min Rain = 0
KHA2 131716Z 20016KT 26/12 A3019 RMK A01 T02600116  RH  041%=      5-min Rain = 0
KHA2 131717Z 21018KT 26/12 A3019 RMK A01 T02610115  RH  040%=      5-min Rain = 0
KHA2 131718Z 19020KT 26/11 A3019 RMK A01 T02610113  RH  039%=      5-min Rain = 0
KHA2 131719Z 19020KT 26/11 A3019 RMK A01 T02590111  RH  040%=      5-min Rain = 0
KHA2 131720Z 18020KT 25/11 A3019 RMK A01 T02540109  RH  040%=      5-min Rain = 0
KHA2 131721Z 18022KT 25/11 A3019 RMK A01 T02520111  RH  041%=      5-min Rain = 0
KHA2 131722Z 19022KT 25/11 A3019 RMK A01 T02530112  RH  041%=      5-min Rain = 0
KHA2 131723Z 21019KT 25/11 A3019 RMK A01 T02540110  RH  040%=      5-min Rain = 0
KHA2 131724Z 20016KT 26/11 A3019 RMK A01 T02580111  RH  040%=      5-min Rain = 0
KHA2 131725Z 19017KT 26/11 A3019 RMK A01 T02570110  RH  040%=      5-min Rain = 0
KHA2 131726Z 19016G21KT 26/11 A3019 RMK A01 T02550111  RH  040%=      5-min Rain = 0
KHA2 131727Z 20017KT 26/11 A3019 RMK A01 T02570114  RH  041%=      5-min Rain = 0
KHA2 131728Z 20018G24KT 26/11 A3018 RMK A01 T02610114  RH  040%=      5-min Rain = 0
KHA2 131729Z 19019G24KT 26/12 A3019 RMK A01 T02630116  RH  040%=      5-min Rain = 0
KHA2 131730Z 20017G22KT 26/11 A3018 RMK A01 T02610112  RH  039%=      5-min Rain = 0
KHA2 131731Z 20016KT 26/11 A3018 RMK A01 T02590112  RH  040%=      5-min Rain = 0
KHA2 131732Z 19020KT 26/11 A3018 RMK A01 T02600113  RH  040%=      5-min Rain = 0
KHA2 131733Z 20019KT 26/11 A3018 RMK A01 T02600112  RH  040%=      5-min Rain = 0
KHA2 131734Z 20016KT 26/11 A3018 RMK A01 T02600112  RH  039%=      5-min Rain = 0
KHA2 131735Z 18018KT 26/11 A3018 RMK A01 T02600114  RH  040%=      5-min Rain = 0
KHA2 131736Z 19021G27KT 26/12 A3018 RMK A01 T02600116  RH  041%=      5-min Rain = 0
KHA2 131737Z 21020KT 26/12 A3018 RMK A01 T02600116  RH  041%=      5-min Rain = 0
KHA2 131738Z 21017KT 26/12 A3018 RMK A01 T02610115  RH  040%=      5-min Rain = 0
KHA2 131739Z 22018KT 26/12 A3018 RMK A01 T02620118  RH  041%=      5-min Rain = 0
KHA2 131740Z 21021KT 26/12 A3018 RMK A01 T02640119  RH  040%=      5-min Rain = 0
KHA2 131741Z 21020KT 26/12 A3018 RMK A01 T02640119  RH  041%=      5-min Rain = 0
KHA2 131742Z 21020G25KT 26/12 A3018 RMK A01 T02630120  RH  041%=      5-min Rain = 0
KHA2 131743Z 21020KT 27/12 A3018 RMK A01 T02650117  RH  040%=      5-min Rain = 0
KHA2 131744Z 19022KT 27/12 A3018 RMK A01 T02650117  RH  040%=      5-min Rain = 0
KHA2 131745Z 19020KT 26/12 A3018 RMK A01 T02620115  RH  040%=      5-min Rain = 0
KHA2 131746Z 18017KT 26/12 A3018 RMK A01 T02600117  RH  041%=      5-min Rain = 0
KHA2 131747Z 19017KT 26/12 A3018 RMK A01 T02590119  RH  042%=      5-min Rain = 0
KHA2 131748Z 19020G26KT 26/12 A3018 RMK A01 T02610120  RH  041%=      5-min Rain = 0
KHA2 131749Z 19020KT 26/12 A3018 RMK A01 T02620119  RH  041%=      5-min Rain = 0
KHA2 131750Z 21022KT 26/12 A3018 RMK A01 T02620119  RH  041%=      5-min Rain = 0
KHA2 131751Z 20020KT 26/12 A3018 RMK A01 T02640119  RH  040%=      5-min Rain = 0
KHA2 131752Z 20019G25KT 26/12 A3017 RMK A01 T02640121  RH  041%=      5-min Rain = 0
KHA2 131753Z 20021KT 27/12 A3017 RMK A01 T02650121  RH  041%=      5-min Rain = 0
KHA2 131754Z 21021G26KT 27/12 A3017 RMK A01 T02670122  RH  040%=      5-min Rain = 0
KHA2 131755Z 21020KT 27/12 A3017 RMK A01 T02680122  RH  040%=      5-min Rain = 0
KHA2 131756Z 20020KT 27/12 A3017 RMK A01 T02670121  RH  040%=      5-min Rain = 0
KHA2 131757Z 20020KT 27/12 A3017 RMK A01 T02660121  RH  040%=      5-min Rain = 0
KHA2 131758Z 19020KT 27/12 A3017 RMK A01 T02670122  RH  040%=      5-min Rain = 0
KHA2 131759Z 20016KT 27/12 A3017 RMK A01 T02660120  RH  040%=      5-min Rain = 0
KHA2 131800Z 20016KT 27/12 A3017 RMK A01 T02660119  RH  040%=      5-min Rain = 0
KHA2 131801Z 21021G26KT 27/12 A3017 RMK A01 T02670123  RH  041%=      5-min Rain = 0
KHA2 131802Z 21021KT 27/12 A3017 RMK A01 T02710123  RH  040%=      5-min Rain = 0
KHA2 131803Z 22018KT 27/12 A3017 RMK A01 T02700123  RH  040%=      5-min Rain = 0
KHA2 131804Z 20020G25KT 27/12 A3016 RMK A01 T02720124  RH  040%=      5-min Rain = 0
KHA2 131805Z 19019KT 27/13 A3016 RMK A01 T02730126  RH  040%=      5-min Rain = 0
KHA2 131806Z 19018G23KT 27/12 A3017 RMK A01 T02730123  RH  039%=      5-min Rain = 0
KHA2 131807Z 18018KT 27/12 A3017 RMK A01 T02690124  RH  041%=      5-min Rain = 0
KHA2 131808Z 19021KT 27/12 A3016 RMK A01 T02660123  RH  041%=      5-min Rain = 0
KHA2 131809Z 19019KT 26/12 A3016 RMK A01 T02640122  RH  041%=      5-min Rain = 0
KHA2 131810Z 21021KT 27/13 A3016 RMK A01 T02670125  RH  041%=      5-min Rain = 0
KHA2 131811Z 20018KT 27/12 A3016 RMK A01 T02700122  RH  040%=      5-min Rain = 0
KHA2 131812Z 20019KT 27/12 A3016 RMK A01 T02670121  RH  040%=      5-min Rain = 0
KHA2 131813Z 21023KT 27/12 A3016 RMK A01 T02660121  RH  041%=      5-min Rain = 0
KHA2 131814Z 20020KT 27/12 A3016 RMK A01 T02680121  RH  040%=      5-min Rain = 0
KHA2 131815Z 20018KT 27/12 A3016 RMK A01 T02700124  RH  040%=      5-min Rain = 0
KHA2 131816Z 19017KT 27/12 A3016 RMK A01 T02720124  RH  040%=      5-min Rain = 0
KHA2 131817Z 20018G23KT 27/13 A3016 RMK A01 T02720125  RH  040%=      5-min Rain = 0
KHA2 131818Z 21022KT 27/12 A3016 RMK A01 T02720122  RH  039%=      5-min Rain = 0
KHA2 131819Z 20020KT 27/12 A3016 RMK A01 T02720121  RH  039%=      5-min Rain = 0
KHA2 131820Z 21017KT 27/12 A3016 RMK A01 T02690120  RH  040%=      5-min Rain = 0
KHA2 131821Z 19018G24KT 27/12 A3016 RMK A01 T02680122  RH  040%=      5-min Rain = 0
KHA2 131822Z 20018G23KT 27/12 A3016 RMK A01 T02690124  RH  040%=      5-min Rain = 0
KHA2 131823Z 20018G24KT 27/13 A3016 RMK A01 T02720125  RH  040%=      5-min Rain = 0
KHA2 131824Z 21018G23KT 27/12 A3016 RMK A01 T02720122  RH  039%=      5-min Rain = 0
KHA2 131825Z 19019G24KT 27/12 A3016 RMK A01 T02700123  RH  040%=      5-min Rain = 0
KHA2 131826Z 20021KT 27/13 A3016 RMK A01 T02700125  RH  041%=      5-min Rain = 0
KHA2 131827Z 20021KT 27/12 A3016 RMK A01 T02700122  RH  040%=      5-min Rain = 0
KHA2 131828Z 21017G22KT 27/12 A3016 RMK A01 T02680123  RH  041%=      5-min Rain = 0
KHA2 131829Z 21016G21KT 27/12 A3016 RMK A01 T02700123  RH  040%=      5-min Rain = 0
KHA2 131830Z 21016KT 27/12 A3016 RMK A01 T02690123  RH  040%=      5-min Rain = 0
KHA2 131831Z 20015KT 27/12 A3016 RMK A01 T02700124  RH  040%=      5-min Rain = 0
KHA2 131832Z 21014KT 27/13 A3016 RMK A01 T02710126  RH  041%=      5-min Rain = 0
KHA2 131833Z 21019KT 27/13 A3016 RMK A01 T02740127  RH  040%=      5-min Rain = 0
KHA2 131834Z 21019KT 28/13 A3016 RMK A01 T02760125  RH  039%=      5-min Rain = 0
KHA2 131835Z 22016KT 28/12 A3015 RMK A01 T02750123  RH  039%=      5-min Rain = 0
KHA2 131836Z 21017KT 28/12 A3015 RMK A01 T02750124  RH  039%=      5-min Rain = 0
KHA2 131837Z 21018KT 27/13 A3015 RMK A01 T02740125  RH  040%=      5-min Rain = 0
KHA2 131838Z 20021KT 27/13 A3015 RMK A01 T02740125  RH  040%=      5-min Rain = 0
KHA2 131839Z 21022KT 27/12 A3015 RMK A01 T02740124  RH  039%=      5-min Rain = 0
KHA2 131840Z 22019KT 27/12 A3015 RMK A01 T02720122  RH  040%=      5-min Rain = 0
KHA2 131841Z 21019KT 27/12 A3015 RMK A01 T02700123  RH  040%=      5-min Rain = 0
KHA2 131842Z 20022KT 27/13 A3015 RMK A01 T02710125  RH  040%=      5-min Rain = 0
KHA2 131843Z 20020KT 27/13 A3015 RMK A01 T02730125  RH  040%=      5-min Rain = 0
KHA2 131844Z 20020KT 27/12 A3015 RMK A01 T02740124  RH  040%=      5-min Rain = 0
KHA2 131845Z 19017KT 27/12 A3015 RMK A01 T02720124  RH  040%=      5-min Rain = 0
KHA2 131846Z 20016KT 27/13 A3014 RMK A01 T02720128  RH  041%=      5-min Rain = 0
KHA2 131847Z 20019G24KT 28/13 A3014 RMK A01 T02780131  RH  040%=      5-min Rain = 0
KHA2 131848Z 19018KT 28/13 A3014 RMK A01 T02810129  RH  039%=      5-min Rain = 0
KHA2 131849Z 19021KT 28/13 A3014 RMK A01 T02810130  RH  039%=      5-min Rain = 0
KHA2 131850Z 20020G25KT 28/13 A3014 RMK A01 T02800128  RH  039%=      5-min Rain = 0
KHA2 131851Z 19021KT 28/13 A3014 RMK A01 T02780126  RH  039%=      5-min Rain = 0
KHA2 131852Z 19019KT 28/13 A3014 RMK A01 T02770127  RH  039%=      5-min Rain = 0
KHA2 131853Z 20017G22KT 28/13 A3014 RMK A01 T02770127  RH  040%=      5-min Rain = 0
KHA2 131854Z 20014KT 28/13 A3014 RMK A01 T02800130  RH  040%=      5-min Rain = 0
KHA2 131855Z 21013G22KT 28/13 A3014 RMK A01 T02810127  RH  039%=      5-min Rain = 0
KHA2 131856Z 21022KT 28/13 A3014 RMK A01 T02790127  RH  039%=      5-min Rain = 0
KHA2 131857Z 22020KT 28/13 A3014 RMK A01 T02760125  RH  039%=      5-min Rain = 0
KHA2 131858Z 21021KT 28/13 A3014 RMK A01 T02760127  RH  040%=      5-min Rain = 0
KHA2 131859Z 20019G24KT 28/13 A3014 RMK A01 T02770127  RH  039%=      5-min Rain = 0
KHA2 131900Z 18017KT 28/13 A3014 RMK A01 T02790129  RH  040%=      5-min Rain = 0
KHA2 131901Z 18013KT 28/13 A3014 RMK A01 T02760126  RH  040%=      5-min Rain = 0
KHA2 131902Z 19018G23KT 27/13 A3014 RMK A01 T02720131  RH  042%=      5-min Rain = 0
KHA2 131903Z 18023KT 27/13 A3014 RMK A01 T02740129  RH  041%=      5-min Rain = 0
KHA2 131904Z 18019KT 27/13 A3014 RMK A01 T02700126  RH  041%=      5-min Rain = 0
KHA2 131905Z 19017KT 27/13 A3014 RMK A01 T02700128  RH  041%=      5-min Rain = 0
KHA2 131906Z 19016KT 27/13 A3014 RMK A01 T02720129  RH  041%=      5-min Rain = 0
KHA2 131907Z 19013KT 28/13 A3014 RMK A01 T02770132  RH  041%=      5-min Rain = 0
KHA2 131908Z 20015KT 28/14 A3014 RMK A01 T02820135  RH  040%=      5-min Rain = 0
KHA2 131909Z 20018KT 29/13 A3013 RMK A01 T02850131  RH  039%=      5-min Rain = 0
KHA2 131910Z 21021G27KT 28/13 A3013 RMK A01 T02830130  RH  039%=      5-min Rain = 0
KHA2 131911Z 21023KT 28/13 A3013 RMK A01 T02840130  RH  039%=      5-min Rain = 0
KHA2 131912Z 21020KT 28/13 A3013 RMK A01 T02840127  RH  038%=      5-min Rain = 0
KHA2 131913Z 20016KT 28/13 A3013 RMK A01 T02820129  RH  039%=      5-min Rain = 0
KHA2 131914Z 20018KT 28/13 A3013 RMK A01 T02830130  RH  039%=      5-min Rain = 0
KHA2 131915Z 20018KT 29/13 A3013 RMK A01 T02870133  RH  039%=      5-min Rain = 0
KHA2 131916Z 21018KT 29/13 A3013 RMK A01 T02880131  RH  038%=      5-min Rain = 0
KHA2 131917Z 21018KT 29/13 A3013 RMK A01 T02880132  RH  038%=      5-min Rain = 0
KHA2 131918Z 20020KT 29/13 A3013 RMK A01 T02890132  RH  038%=      5-min Rain = 0
KHA2 131919Z 20017KT 29/13 A3013 RMK A01 T02860129  RH  038%=      5-min Rain = 0
KHA2 131920Z 18019G24KT 29/13 A3013 RMK A01 T02850133  RH  039%=      5-min Rain = 0
KHA2 131921Z 18022KT 28/13 A3013 RMK A01 T02810127  RH  039%=      5-min Rain = 0
KHA2 131922Z 19023KT 28/13 A3013 RMK A01 T02750128  RH  040%=      5-min Rain = 0
KHA2 131923Z 20016G24KT 27/13 A3013 RMK A01 T02740128  RH  040%=      5-min Rain = 0
KHA2 131924Z 19017KT 28/13 A3012 RMK A01 T02760130  RH  041%=      5-min Rain = 0
KHA2 131925Z 19017KT 28/13 A3012 RMK A01 T02790133  RH  040%=      5-min Rain = 0
KHA2 131926Z 18018KT 28/13 A3012 RMK A01 T02810134  RH  040%=      5-min Rain = 0
KHA2 131927Z 19024KT 28/13 A3012 RMK A01 T02830132  RH  040%=      5-min Rain = 0
KHA2 131928Z 19021KT 28/13 A3012 RMK A01 T02790128  RH  039%=      5-min Rain = 0
KHA2 131929Z 18020KT 28/13 A3012 RMK A01 T02790129  RH  040%=      5-min Rain = 0
KHA2 131930Z 19018KT 28/13 A3012 RMK A01 T02770130  RH  040%=      5-min Rain = 0
KHA2 131931Z 19018KT 28/13 A3012 RMK A01 T02770129  RH  040%=      5-min Rain = 0
KHA2 131932Z 19023KT 28/13 A3012 RMK A01 T02770131  RH  041%=      5-min Rain = 0
KHA2 131933Z 20018G23KT 28/13 A3012 RMK A01 T02810133  RH  040%=      5-min Rain = 0
KHA2 131934Z 20020KT 29/13 A3012 RMK A01 T02850132  RH  039%=      5-min Rain = 0
KHA2 131935Z 21023G28KT 29/13 A3011 RMK A01 T02850129  RH  038%=      5-min Rain = 0
KHA2 131936Z 21021G27KT 28/13 A3012 RMK A01 T02830129  RH  039%=      5-min Rain = 0
KHA2 131937Z 21020KT 28/13 A3012 RMK A01 T02830130  RH  039%=      5-min Rain = 0
KHA2 131938Z 21019KT 28/13 A3011 RMK A01 T02840130  RH  039%=      5-min Rain = 0
KHA2 131939Z 20017G22KT 29/14 A3011 RMK A01 T02880135  RH  039%=      5-min Rain = 0
KHA2 131940Z 20016KT 29/13 A3011 RMK A01 T02890132  RH  038%=      5-min Rain = 0
KHA2 131941Z 20014G20KT 29/14 A3011 RMK A01 T02880135  RH  039%=      5-min Rain = 0
KHA2 131942Z 19020G25KT 29/14 A3011 RMK A01 T02910135  RH  038%=      5-min Rain = 0
KHA2 131943Z 19020KT 29/13 A3011 RMK A01 T02870131  RH  038%=      5-min Rain = 0
KHA2 131944Z 19022KT 29/13 A3011 RMK A01 T02850131  RH  039%=      5-min Rain = 0
KHA2 131945Z 18024KT 28/13 A3011 RMK A01 T02840132  RH  039%=      5-min Rain = 0
KHA2 131946Z 19019G26KT 28/13 A3011 RMK A01 T02830133  RH  040%=      5-min Rain = 0
KHA2 131947Z 21021KT 29/13 A3011 RMK A01 T02880132  RH  038%=      5-min Rain = 0
KHA2 131948Z 21021KT 29/13 A3011 RMK A01 T02910130  RH  037%=      5-min Rain = 0
KHA2 131949Z 22023KT 29/13 A3011 RMK A01 T02910129  RH  037%=      5-min Rain = 0
KHA2 131950Z 20021G27KT 29/13 A3011 RMK A01 T02900130  RH  037%=      5-min Rain = 0
KHA2 131951Z 20017KT 29/13 A3011 RMK A01 T02900132  RH  038%=      5-min Rain = 0
KHA2 131952Z 20019G24KT 29/13 A3011 RMK A01 T02910132  RH  037%=      5-min Rain = 0
KHA2 131953Z 20020KT 30/13 A301 RMK A01 T02960134  RH  037%=      5-min Rain = 0
KHA2 131954Z 19023G28KT 30/13 A301 RMK A01 T02960132  RH  037%=      5-min Rain = 0
KHA2 131955Z 20020KT 29/13 A301 RMK A01 T02900132  RH  038%=      5-min Rain = 0
KHA2 131956Z 20020G25KT 29/13 A301 RMK A01 T02870132  RH  038%=      5-min Rain = 0
KHA2 131957Z 20022KT 29/13 A301 RMK A01 T02880132  RH  038%=      5-min Rain = 0
KHA2 131958Z 21020KT 29/13 A301 RMK A01 T02870132  RH  039%=      5-min Rain = 0
KHA2 131959Z 21016KT 29/13 A301 RMK A01 T02870133  RH  039%=      5-min Rain = 0
KHA2 132000Z 21017KT 29/13 A301 RMK A01 T02860134  RH  039%=      5-min Rain = 0
KHA2 132001Z 21016KT 29/13 A301 RMK A01 T02870133  RH  039%=      5-min Rain = 0
KHA2 132002Z 19017G22KT 29/13 A301 RMK A01 T02880134  RH  039%=      5-min Rain = 0
KHA2 132003Z 19019KT 29/13 A301 RMK A01 T02870132  RH  038%=      5-min Rain = 0
KHA2 132004Z 19016KT 28/13 A301 RMK A01 T02840133  RH  040%=      5-min Rain = 0
KHA2 132005Z 19018KT 29/14 A301 RMK A01 T02850136  RH  040%=      5-min Rain = 0
KHA2 132006Z 20019KT 29/14 A301 RMK A01 T02890136  RH  039%=      5-min Rain = 0
KHA2 132007Z 20018G23KT 29/14 A301 RMK A01 T02910136  RH  039%=      5-min Rain = 0
KHA2 132008Z 19020G26KT 29/14 A301 RMK A01 T02940137  RH  038%=      5-min Rain = 0
KHA2 132009Z 20020G26KT 29/14 A301 RMK A01 T02930137  RH  038%=      5-min Rain = 0
KHA2 132010Z 21022KT 29/13 A3009 RMK A01 T02930132  RH  037%=      5-min Rain = 0
KHA2 132011Z 19021KT 29/13 A301 RMK A01 T02900134  RH  039%=      5-min Rain = 0
KHA2 132012Z 20020KT 29/14 A3009 RMK A01 T02880135  RH  039%=      5-min Rain = 0
KHA2 132013Z 20016KT 29/14 A3009 RMK A01 T02880135  RH  039%=      5-min Rain = 0
KHA2 132014Z 18016KT 29/14 A3009 RMK A01 T02880138  RH  040%=      5-min Rain = 0
KHA2 132015Z 19015KT 29/14 A3009 RMK A01 T02850138  RH  041%=      5-min Rain = 0
KHA2 132016Z 18019KT 29/14 A3009 RMK A01 T02850137  RH  040%=      5-min Rain = 0
KHA2 132017Z 18021G26KT 29/14 A3009 RMK A01 T02850137  RH  040%=      5-min Rain = 0
KHA2 132018Z 18019G24KT 29/14 A3009 RMK A01 T02860140  RH  041%=      5-min Rain = 0
KHA2 132019Z 18019KT 29/14 A3009 RMK A01 T02890141  RH  040%=      5-min Rain = 0
KHA2 132020Z 20016KT 29/14 A3009 RMK A01 T02910142  RH  040%=      5-min Rain = 0
KHA2 132021Z 21018G23KT 30/14 A3009 RMK A01 T02950140  RH  039%=      5-min Rain = 0
KHA2 132022Z 22020G27KT 30/14 A3009 RMK A01 T02960139  RH  038%=      5-min Rain = 0
KHA2 132023Z 20022KT 30/14 A3009 RMK A01 T02960138  RH  038%=      5-min Rain = 0
KHA2 132024Z 19021KT 29/14 A3009 RMK A01 T02940140  RH  039%=      5-min Rain = 0
KHA2 132025Z 20017G22KT 29/14 A3009 RMK A01 T02920139  RH  039%=      5-min Rain = 0
KHA2 132026Z 19019KT 29/14 A3009 RMK A01 T02920140  RH  039%=      5-min Rain = 0
KHA2 132027Z 18018G25KT 29/14 A3009 RMK A01 T02920142  RH  040%=      5-min Rain = 0
KHA2 132028Z 19020G25KT 29/14 A3008 RMK A01 T02910142  RH  040%=      5-min Rain = 0
KHA2 132029Z 20021G27KT 29/14 A3008 RMK A01 T02900140  RH  040%=      5-min Rain = 0
KHA2 132030Z 20021G26KT 29/14 A3008 RMK A01 T02920137  RH  039%=      5-min Rain = 0
KHA2 132031Z 19023KT 29/14 A3008 RMK A01 T02900137  RH  039%=      5-min Rain = 0
KHA2 132032Z 19021KT 29/14 A3008 RMK A01 T02910138  RH  039%=      5-min Rain = 0
KHA2 132033Z 18022KT 29/14 A3008 RMK A01 T02900138  RH  039%=      5-min Rain = 0
KHA2 132034Z 19020KT 29/14 A3008 RMK A01 T02880139  RH  040%=      5-min Rain = 0
KHA2 132035Z 19022G27KT 29/14 A3008 RMK A01 T02880136  RH  039%=      5-min Rain = 0
KHA2 132036Z 19021KT 29/14 A3008 RMK A01 T02870135  RH  039%=      5-min Rain = 0
KHA2 132037Z 20020KT 29/14 A3008 RMK A01 T02870136  RH  039%=      5-min Rain = 0
KHA2 132038Z 19020KT 29/14 A3008 RMK A01 T02910139  RH  039%=      5-min Rain = 0
KHA2 132039Z 20021KT 29/14 A3008 RMK A01 T02930137  RH  038%=      5-min Rain = 0
KHA2 132040Z 20021KT 29/14 A3008 RMK A01 T02930135  RH  038%=      5-min Rain = 0
KHA2 132041Z 19024KT 29/14 A3008 RMK A01 T02930136  RH  038%=      5-min Rain = 0
KHA2 132042Z 19022KT 29/14 A3008 RMK A01 T02910137  RH  039%=      5-min Rain = 0
KHA2 132043Z 21020KT 29/14 A3008 RMK A01 T02900138  RH  039%=      5-min Rain = 0
KHA2 132044Z 21021KT 29/14 A3008 RMK A01 T02910138  RH  039%=      5-min Rain = 0
KHA2 132045Z 20019KT 29/14 A3008 RMK A01 T02920140  RH  039%=      5-min Rain = 0
KHA2 132046Z 20016KT 29/14 A3008 RMK A01 T02940139  RH  039%=      5-min Rain = 0
KHA2 132047Z 19020G26KT 30/14 A3008 RMK A01 T02970141  RH  039%=      5-min Rain = 0
KHA2 132048Z 19023KT 30/14 A3008 RMK A01 T02950136  RH  038%=      5-min Rain = 0
KHA2 132049Z 20020KT 29/14 A3008 RMK A01 T02930136  RH  038%=      5-min Rain = 0
KHA2 132050Z 21021KT 29/14 A3008 RMK A01 T02920138  RH  039%=      5-min Rain = 0
KHA2 132051Z 19022KT 29/14 A3008 RMK A01 T02940138  RH  038%=      5-min Rain = 0
KHA2 132052Z 20021KT 29/14 A3008 RMK A01 T02920139  RH  039%=      5-min Rain = 0
KHA2 132053Z 20018KT 29/14 A3007 RMK A01 T02930138  RH  039%=      5-min Rain = 0
KHA2 132054Z 20020G28KT 29/14 A3007 RMK A01 T02940139  RH  039%=      5-min Rain = 0
KHA2 132055Z 19025KT 29/14 A3007 RMK A01 T02940137  RH  038%=      5-min Rain = 0
KHA2 132056Z 19018G24KT 29/14 A3007 RMK A01 T02900135  RH  039%=      5-min Rain = 0
KHA2 132057Z 18021KT 29/14 A3007 RMK A01 T02900139  RH  040%=      5-min Rain = 0
KHA2 132058Z 19021G27KT 29/14 A3007 RMK A01 T02900136  RH  039%=      5-min Rain = 0
KHA2 132059Z 18018KT 29/14 A3007 RMK A01 T02900138  RH  039%=      5-min Rain = 0
KHA2 132100Z 18015G22KT 29/14 A3007 RMK A01 T02890139  RH  040%=      5-min Rain = 0
KHA2 132101Z 18026KT 29/14 A3007 RMK A01 T02890137  RH  039%=      5-min Rain = 0
KHA2 132102Z 19023KT 29/14 A3007 RMK A01 T02920138  RH  039%=      5-min Rain = 0
KHA2 132103Z 20021KT 29/14 A3007 RMK A01 T02930136  RH  038%=      5-min Rain = 0
KHA2 132104Z 20019G24KT 30/14 A3007 RMK A01 T02950140  RH  039%=      5-min Rain = 0
KHA2 132105Z 20020KT 30/14 A3007 RMK A01 T02980139  RH  038%=      5-min Rain = 0
KHA2 132106Z 19021G29KT 30/14 A3007 RMK A01 T02980139  RH  038%=      5-min Rain = 0
KHA2 132107Z 19022KT 30/14 A3007 RMK A01 T02970137  RH  038%=      5-min Rain = 0
KHA2 132108Z 20019G24KT 30/14 A3007 RMK A01 T02970138  RH  038%=      5-min Rain = 0
KHA2 132109Z 20020KT 30/14 A3007 RMK A01 T02990136  RH  037%=      5-min Rain = 0
KHA2 132110Z 20016G24KT 30/14 A3007 RMK A01 T02990135  RH  037%=      5-min Rain = 0
KHA2 132111Z 21022KT 30/14 A3007 RMK A01 T03010137  RH  037%=      5-min Rain = 0
KHA2 132112Z 20022KT 30/13 A3007 RMK A01 T03020134  RH  036%=      5-min Rain = 0
KHA2 132113Z 19017G23KT 30/14 A3007 RMK A01 T02990136  RH  037%=      5-min Rain = 0
KHA2 132114Z 19020G25KT 30/14 A3006 RMK A01 T02980137  RH  037%=      5-min Rain = 0
KHA2 132115Z 19023KT 30/14 A3006 RMK A01 T02950136  RH  038%=      5-min Rain = 0
KHA2 132116Z 20018KT 30/13 A3006 RMK A01 T02950133  RH  037%=      5-min Rain = 0
KHA2 132117Z 19015KT 30/13 A3006 RMK A01 T02950134  RH  037%=      5-min Rain = 0
KHA2 132118Z 20017G22KT 30/14 A3006 RMK A01 T02950138  RH  038%=      5-min Rain = 0
KHA2 132119Z 20019G26KT 30/14 A3006 RMK A01 T02960138  RH  038%=      5-min Rain = 0
KHA2 132120Z 19024KT 30/14 A3006 RMK A01 T02950136  RH  038%=      5-min Rain = 0
KHA2 132121Z 19022KT 29/14 A3006 RMK A01 T02910135  RH  038%=      5-min Rain = 0
KHA2 132122Z 19021KT 29/14 A3006 RMK A01 T02900135  RH  039%=      5-min Rain = 0
KHA2 132123Z 19021KT 29/14 A3006 RMK A01 T02900137  RH  039%=      5-min Rain = 0
KHA2 132124Z 19019KT 29/14 A3006 RMK A01 T02920137  RH  039%=      5-min Rain = 0
KHA2 132125Z 20019KT 29/14 A3006 RMK A01 T02920137  RH  039%=      5-min Rain = 0
KHA2 132126Z 20018KT 29/14 A3006 RMK A01 T02920137  RH  039%=      5-min Rain = 0
KHA2 132127Z 20015G23KT 29/14 A3006 RMK A01 T02920138  RH  039%=      5-min Rain = 0
KHA2 132128Z 19019KT 29/14 A3006 RMK A01 T02920138  RH  039%=      5-min Rain = 0
KHA2 132129Z 19018KT 29/14 A3006 RMK A01 T02930139  RH  039%=      5-min Rain = 0
KHA2 132130Z 19019G24KT 30/14 A3005 RMK A01 T02950139  RH  039%=      5-min Rain = 0
KHA2 132131Z 19020KT 29/14 A3005 RMK A01 T02940137  RH  038%=      5-min Rain = 0
KHA2 132132Z 18020G25KT 29/14 A3005 RMK A01 T02920137  RH  039%=      5-min Rain = 0
KHA2 132133Z 17020G26KT 29/14 A3005 RMK A01 T02900138  RH  039%=      5-min Rain = 0
KHA2 132134Z 18020KT 29/14 A3005 RMK A01 T02920138  RH  039%=      5-min Rain = 0
KHA2 132135Z 20021KT 29/14 A3005 RMK A01 T02940138  RH  038%=      5-min Rain = 0
KHA2 132136Z 20018KT 30/14 A3005 RMK A01 T02970136  RH  037%=      5-min Rain = 0
KHA2 132137Z 21021KT 30/14 A3005 RMK A01 T02990135  RH  037%=      5-min Rain = 0
KHA2 132138Z 21020KT 30/14 A3005 RMK A01 T02980135  RH  037%=      5-min Rain = 0
KHA2 132139Z 21021KT 30/13 A3005 RMK A01 T02980134  RH  037%=      5-min Rain = 0
KHA2 132140Z 21018G24KT 30/13 A3005 RMK A01 T02960133  RH  037%=      5-min Rain = 0
KHA2 132141Z 20015G20KT 30/14 A3005 RMK A01 T02960135  RH  037%=      5-min Rain = 0
KHA2 132142Z 19017KT 30/14 A3005 RMK A01 T02980138  RH  038%=      5-min Rain = 0
KHA2 132143Z 19022KT 30/14 A3004 RMK A01 T02970139  RH  038%=      5-min Rain = 0
KHA2 132144Z 19019G25KT 30/14 A3004 RMK A01 T02970137  RH  038%=      5-min Rain = 0
KHA2 132145Z 19019KT 30/14 A3005 RMK A01 T02960139  RH  038%=      5-min Rain = 0
KHA2 132146Z 18019KT 30/14 A3005 RMK A01 T02970139  RH  038%=      5-min Rain = 0
KHA2 132147Z 18017KT 30/14 A3004 RMK A01 T02950139  RH  038%=      5-min Rain = 0
KHA2 132148Z 19018G23KT 29/14 A3004 RMK A01 T02930138  RH  039%=      5-min Rain = 0
KHA2 132149Z 20023G30KT 29/14 A3004 RMK A01 T02930135  RH  038%=      5-min Rain = 0
KHA2 132150Z 19023G28KT 29/13 A3004 RMK A01 T02930134  RH  038%=      5-min Rain = 0
KHA2 132151Z 19019G24KT 29/13 A3004 RMK A01 T02900133  RH  038%=      5-min Rain = 0
KHA2 132152Z 19022G28KT 29/13 A3004 RMK A01 T02890133  RH  038%=      5-min Rain = 0
KHA2 132153Z 19021KT 29/13 A3004 RMK A01 T02880133  RH  039%=      5-min Rain = 0
KHA2 132154Z 20020G25KT 29/13 A3004 RMK A01 T02910134  RH  038%=      5-min Rain = 0
KHA2 132155Z 18017KT 29/14 A3004 RMK A01 T02940135  RH  038%=      5-min Rain = 0
KHA2 132156Z 19018KT 29/14 A3004 RMK A01 T02940135  RH  038%=      5-min Rain = 0
KHA2 132157Z 19019KT 29/14 A3004 RMK A01 T02930135  RH  038%=      5-min Rain = 0
KHA2 132158Z 19020G25KT 29/14 A3004 RMK A01 T02940135  RH  038%=      5-min Rain = 0
KHA2 132159Z 19019KT 29/14 A3004 RMK A01 T02940136  RH  038%=      5-min Rain = 0
KHA2 132200Z 20023KT 29/14 A3004 RMK A01 T02940135  RH  038%=      5-min Rain = 0
KHA2 132201Z 20022KT 30/13 A3004 RMK A01 T02960134  RH  037%=      5-min Rain = 0
KHA2 132202Z 19022KT 30/14 A3004 RMK A01 T02970135  RH  037%=      5-min Rain = 0
KHA2 132203Z 19022G27KT 30/13 A3004 RMK A01 T02970134  RH  037%=      5-min Rain = 0
KHA2 132204Z 18022KT 30/14 A3004 RMK A01 T02960135  RH  037%=      5-min Rain = 0
KHA2 132205Z 19021KT 30/13 A3004 RMK A01 T02950133  RH  037%=      5-min Rain = 0
KHA2 132206Z 19019G24KT 30/13 A3004 RMK A01 T02950134  RH  037%=      5-min Rain = 0
KHA2 132207Z 19021KT 30/14 A3003 RMK A01 T02950135  RH  037%=      5-min Rain = 0
KHA2 132208Z 19019KT 30/13 A3003 RMK A01 T02960134  RH  037%=      5-min Rain = 0
KHA2 132209Z 19018KT 30/14 A3003 RMK A01 T02970135  RH  037%=      5-min Rain = 0
KHA2 132210Z 18020KT 30/14 A3003 RMK A01 T02980136  RH  037%=      5-min Rain = 0
KHA2 132211Z 19018KT 30/14 A3003 RMK A01 T02970136  RH  037%=      5-min Rain = 0
KHA2 132212Z 20018KT 30/14 A3003 RMK A01 T02980135  RH  037%=      5-min Rain = 0
KHA2 132213Z 19020G26KT 30/14 A3003 RMK A01 T02990137  RH  037%=      5-min Rain = 0
KHA2 132214Z 19019KT 30/14 A3003 RMK A01 T02990137  RH  037%=      5-min Rain = 0
KHA2 132215Z 19020KT 30/14 A3003 RMK A01 T03000137  RH  037%=      5-min Rain = 0
KHA2 132216Z 18020KT 30/14 A3003 RMK A01 T03000138  RH  037%=      5-min Rain = 0
KHA2 132217Z 19023KT 30/14 A3003 RMK A01 T03000137  RH  037%=      5-min Rain = 0
KHA2 132218Z 18016KT 30/14 A3003 RMK A01 T03000136  RH  037%=      5-min Rain = 0
KHA2 132219Z 19021G26KT 30/14 A3003 RMK A01 T03000138  RH  037%=      5-min Rain = 0
KHA2 132220Z 18024KT 30/14 A3003 RMK A01 T03000137  RH  037%=      5-min Rain = 0
KHA2 132221Z 20022KT 30/14 A3003 RMK A01 T02980137  RH  037%=      5-min Rain = 0
KHA2 132222Z 20021KT 30/14 A3003 RMK A01 T02990137  RH  037%=      5-min Rain = 0
KHA2 132223Z 19019KT 30/14 A3003 RMK A01 T02990137  RH  037%=      5-min Rain = 0
KHA2 132224Z 19021KT 30/14 A3003 RMK A01 T02990137  RH  037%=      5-min Rain = 0
KHA2 132225Z 19018KT 30/14 A3003 RMK A01 T02960135  RH  037%=      5-min Rain = 0
KHA2 132226Z 20018G23KT 30/14 A3003 RMK A01 T02950136  RH  038%=      5-min Rain = 0
KHA2 132227Z 19019G24KT 30/14 A3003 RMK A01 T02980139  RH  038%=      5-min Rain = 0
KHA2 132228Z 19019KT 30/14 A3003 RMK A01 T03000138  RH  037%=      5-min Rain = 0
KHA2 132229Z 19021KT 30/14 A3003 RMK A01 T03010138  RH  037%=      5-min Rain = 0
KHA2 132230Z 19022G27KT 30/14 A3002 RMK A01 T02990137  RH  037%=      5-min Rain = 0
KHA2 132231Z 19022KT 30/14 A3003 RMK A01 T02980136  RH  037%=      5-min Rain = 0
KHA2 132232Z 19024KT 30/14 A3003 RMK A01 T02980135  RH  037%=      5-min Rain = 0
KHA2 132233Z 19021KT 30/14 A3002 RMK A01 T02970135  RH  037%=      5-min Rain = 0
KHA2 132234Z 18022KT 30/14 A3002 RMK A01 T02970135  RH  037%=      5-min Rain = 0
KHA2 132235Z 18020KT 30/14 A3002 RMK A01 T02960136  RH  037%=      5-min Rain = 0
KHA2 132236Z 18019KT 30/14 A3002 RMK A01 T02950135  RH  038%=      5-min Rain = 0
KHA2 132237Z 18018KT 30/14 A3002 RMK A01 T02950136  RH  038%=      5-min Rain = 0
KHA2 132238Z 18016KT 30/14 A3002 RMK A01 T02950138  RH  038%=      5-min Rain = 0
KHA2 132239Z 19018KT 30/14 A3002 RMK A01 T02970140  RH  038%=      5-min Rain = 0
KHA2 132240Z 19023KT 30/14 A3002 RMK A01 T02990136  RH  037%=      5-min Rain = 0
KHA2 132241Z 20019G27KT 30/14 A3002 RMK A01 T03010137  RH  037%=      5-min Rain = 0
KHA2 132242Z 19022KT 30/14 A3002 RMK A01 T03030138  RH  037%=      5-min Rain = 0
KHA2 132243Z 18022G27KT 30/14 A3002 RMK A01 T03030139  RH  037%=      5-min Rain = 0
KHA2 132244Z 18025KT 30/14 A3002 RMK A01 T03000137  RH  037%=      5-min Rain = 0
KHA2 132245Z 18021KT 30/14 A3002 RMK A01 T02970137  RH  037%=      5-min Rain = 0
KHA2 132246Z 19019KT 30/14 A3002 RMK A01 T02960138  RH  038%=      5-min Rain = 0
KHA2 132247Z 19021KT 30/14 A3002 RMK A01 T02990138  RH  037%=      5-min Rain = 0
KHA2 132248Z 19020KT 30/14 A3002 RMK A01 T03000138  RH  037%=      5-min Rain = 0
KHA2 132249Z 19019G24KT 30/14 A3002 RMK A01 T03020137  RH  037%=      5-min Rain = 0
KHA2 132250Z 19020KT 30/14 A3002 RMK A01 T03010136  RH  036%=      5-min Rain = 0
KHA2 132251Z 19026KT 30/14 A3002 RMK A01 T03010137  RH  037%=      5-min Rain = 0
KHA2 132252Z 18023KT 30/14 A3002 RMK A01 T03010135  RH  036%=      5-min Rain = 0
KHA2 132253Z 18025KT 30/14 A3002 RMK A01 T03000136  RH  037%=      5-min Rain = 0
KHA2 132254Z 19021KT 30/14 A3002 RMK A01 T02990135  RH  037%=      5-min Rain = 0
KHA2 132255Z 19022KT 30/14 A3002 RMK A01 T02980135  RH  037%=      5-min Rain = 0
KHA2 132256Z 19020KT 30/14 A3002 RMK A01 T02990135  RH  036%=      5-min Rain = 0
KHA2 132257Z 19018KT 30/14 A3002 RMK A01 T03010135  RH  036%=      5-min Rain = 0
KHA2 132258Z 19021KT 30/14 A3001 RMK A01 T03010136  RH  036%=      5-min Rain = 0
KHA2 132259Z 19019G25KT 30/14 A3001 RMK A01 T03010135  RH  036%=      5-min Rain = 0
KHA2 132300Z 19016KT 30/14 A3001 RMK A01 T03010136  RH  036%=      5-min Rain = 0
KHA2 132301Z 19019KT 30/14 A3001 RMK A01 T03030138  RH  037%=      5-min Rain = 0
KHA2 132302Z 20019G24KT 31/14 A3001 RMK A01 T03050137  RH  036%=      5-min Rain = 0
KHA2 132303Z 20021KT 31/14 A3001 RMK A01 T03070135  RH  035%=      5-min Rain = 0
KHA2 132304Z 19020KT 31/13 A3001 RMK A01 T03060133  RH  035%=      5-min Rain = 0
KHA2 132305Z 19019KT 30/14 A3001 RMK A01 T03030135  RH  036%=      5-min Rain = 0
KHA2 132306Z 19021KT 30/14 A3001 RMK A01 T03040137  RH  036%=      5-min Rain = 0
KHA2 132307Z 18020KT 30/14 A3001 RMK A01 T03040135  RH  036%=      5-min Rain = 0
KHA2 132308Z 19020KT 30/14 A3001 RMK A01 T03020136  RH  036%=      5-min Rain = 0
KHA2 132309Z 19017KT 30/14 A3001 RMK A01 T03020138  RH  037%=      5-min Rain = 0
KHA2 132310Z 19016KT 30/14 A3001 RMK A01 T03040136  RH  036%=      5-min Rain = 0
KHA2 132311Z 19016G21KT 31/14 A3001 RMK A01 T03050137  RH  036%=      5-min Rain = 0
KHA2 132312Z 18018KT 31/14 A3001 RMK A01 T03060138  RH  036%=      5-min Rain = 0
KHA2 132313Z 18023KT 31/14 A3001 RMK A01 T03060138  RH  036%=      5-min Rain = 0
KHA2 132314Z 18018KT 30/14 A3001 RMK A01 T03040136  RH  036%=      5-min Rain = 0
KHA2 132315Z 19019G25KT 30/14 A3001 RMK A01 T03030137  RH  036%=      5-min Rain = 0
KHA2 132316Z 19020KT 30/14 A3001 RMK A01 T03040138  RH  036%=      5-min Rain = 0
KHA2 132317Z 19020KT 30/14 A30 RMK A01 T03030137  RH  036%=      5-min Rain = 0
KHA2 132318Z 18021KT 30/14 A30 RMK A01 T03030136  RH  036%=      5-min Rain = 0
KHA2 132319Z 18022KT 30/14 A30 RMK A01 T03010138  RH  037%=      5-min Rain = 0
KHA2 132320Z 18021G26KT 30/14 A30 RMK A01 T03000136  RH  037%=      5-min Rain = 0
KHA2 132321Z 18021KT 30/14 A30 RMK A01 T03000137  RH  037%=      5-min Rain = 0
KHA2 132322Z 18021G26KT 30/14 A30 RMK A01 T03010137  RH  037%=      5-min Rain = 0
KHA2 132323Z 18023KT 30/14 A30 RMK A01 T03010135  RH  036%=      5-min Rain = 0
KHA2 132324Z 19023KT 30/13 A30 RMK A01 T03000134  RH  036%=      5-min Rain = 0
KHA2 132325Z 19020KT 30/13 A30 RMK A01 T03000134  RH  036%=      5-min Rain = 0
KHA2 132326Z 18018KT 30/14 A30 RMK A01 T03020137  RH  036%=      5-min Rain = 0
KHA2 132327Z 19016G23KT 30/14 A30 RMK A01 T03040140  RH  037%=      5-min Rain = 0
KHA2 132328Z 18021KT 31/14 A30 RMK A01 T03060140  RH  036%=      5-min Rain = 0
KHA2 132329Z 18020G26KT 30/14 A30 RMK A01 T03040138  RH  036%=      5-min Rain = 0
KHA2 132330Z 18024KT 30/14 A2999 RMK A01 T03010137  RH  037%=      5-min Rain = 0
KHA2 132331Z 18024KT 30/14 A2999 RMK A01 T02970135  RH  037%=      5-min Rain = 0
KHA2 132332Z 18020KT 30/14 A2999 RMK A01 T02950136  RH  038%=      5-min Rain = 0
KHA2 132333Z 18023G28KT 29/14 A2999 RMK A01 T02940137  RH  038%=      5-min Rain = 0
KHA2 132334Z 18025KT 29/14 A2999 RMK A01 T02940137  RH  038%=      5-min Rain = 0
KHA2 132335Z 19022G27KT 29/14 A2999 RMK A01 T02930136  RH  038%=      5-min Rain = 0
KHA2 132336Z 19019KT 29/14 A2999 RMK A01 T02930135  RH  038%=      5-min Rain = 0
KHA2 132337Z 18018KT 29/14 A2999 RMK A01 T02930136  RH  038%=      5-min Rain = 0
KHA2 132338Z 18018KT 29/14 A2999 RMK A01 T02930136  RH  038%=      5-min Rain = 0
KHA2 132339Z 17019KT 29/14 A2999 RMK A01 T02920136  RH  038%=      5-min Rain = 0
KHA2 132340Z 18021KT 29/14 A2999 RMK A01 T02910136  RH  039%=      5-min Rain = 0
KHA2 132341Z 18020KT 29/14 A2999 RMK A01 T02900136  RH  039%=      5-min Rain = 0
KHA2 132342Z 18018KT 29/14 A2999 RMK A01 T02890137  RH  039%=      5-min Rain = 0
KHA2 132343Z 19017KT 29/14 A2999 RMK A01 T02900137  RH  039%=      5-min Rain = 0
KHA2 132344Z 18021KT 29/14 A2999 RMK A01 T02910138  RH  039%=      5-min Rain = 0
KHA2 132345Z 19019G24KT 29/14 A2999 RMK A01 T02910138  RH  039%=      5-min Rain = 0
KHA2 132346Z 19019KT 29/14 A2999 RMK A01 T02920136  RH  039%=      5-min Rain = 0
KHA2 132347Z 19018KT 29/14 A2999 RMK A01 T02920136  RH  038%=      5-min Rain = 0
KHA2 132348Z 19019G24KT 29/14 A2999 RMK A01 T02930136  RH  038%=      5-min Rain = 0
KHA2 132349Z 19020G27KT 29/14 A2999 RMK A01 T02930137  RH  038%=      5-min Rain = 0
KHA2 132350Z 18023KT 29/14 A2999 RMK A01 T02920137  RH  039%=      5-min Rain = 0
KHA2 132351Z 19019G24KT 29/14 A2999 RMK A01 T02910137  RH  039%=      5-min Rain = 0
KHA2 132352Z 19019KT 29/14 A2999 RMK A01 T02900137  RH  039%=      5-min Rain = 0
KHA2 132353Z 19017G23KT 29/14 A2999 RMK A01 T02900137  RH  039%=      5-min Rain = 0
KHA2 132354Z 19020KT 29/14 A2999 RMK A01 T02900138  RH  039%=      5-min Rain = 0
KHA2 132355Z 18023KT 29/14 A2999 RMK A01 T02890137  RH  039%=      5-min Rain = 0
KHA2 132356Z 18017KT 29/14 A2999 RMK A01 T02890137  RH  039%=      5-min Rain = 0
KHA2 132357Z 18018KT 29/14 A2999 RMK A01 T02890140  RH  040%=      5-min Rain = 0
KHA2 132358Z 18021KT 29/14 A2998 RMK A01 T02880138  RH  040%=      5-min Rain = 0
KHA2 132359Z 18018KT 29/14 A2998 RMK A01 T02880138  RH  040%=      5-min Rain = 0
KHA2 140000Z 18019KT 29/14 A2998 RMK A01 T02880139  RH  040%=      5-min Rain = 0
KHA2 140001Z 18018KT 29/14 A2998 RMK A01 T02890138  RH  040%=      5-min Rain = 0
KHA2 140002Z 18017G22KT 29/14 A2998 RMK A01 T02890140  RH  040%=      5-min Rain = 0
KHA2 140003Z 18020KT 29/14 A2998 RMK A01 T02890138  RH  040%=      5-min Rain = 0
KHA2 140004Z 18020G25KT 29/14 A2998 RMK A01 T02890137  RH  040%=      5-min Rain = 0
KHA2 140005Z 18022G27KT 29/14 A2998 RMK A01 T02890138  RH  039%=      5-min Rain = 0
KHA2 140006Z 19022KT 29/14 A2998 RMK A01 T02900138  RH  039%=      5-min Rain = 0
KHA2 140007Z 18025KT 29/14 A2998 RMK A01 T02900137  RH  039%=      5-min Rain = 0
KHA2 140008Z 18024KT 29/14 A2998 RMK A01 T02900136  RH  039%=      5-min Rain = 0
KHA2 140009Z 18021KT 29/14 A2998 RMK A01 T02900137  RH  039%=      5-min Rain = 0
KHA2 140010Z 18020KT 29/14 A2998 RMK A01 T02900137  RH  039%=      5-min Rain = 0
KHA2 140011Z 18019G26KT 29/14 A2998 RMK A01 T02890138  RH  040%=      5-min Rain = 0
KHA2 140012Z 18021G26KT 29/14 A2998 RMK A01 T02900137  RH  039%=      5-min Rain = 0
KHA2 140013Z 18019KT 29/14 A2998 RMK A01 T02890138  RH  040%=      5-min Rain = 0
KHA2 140014Z 18022KT 29/14 A2998 RMK A01 T02890137  RH  039%=      5-min Rain = 0
KHA2 140015Z 18022G27KT 29/14 A2998 RMK A01 T02890136  RH  039%=      5-min Rain = 0
KHA2 140016Z 18024KT 29/14 A2998 RMK A01 T02880135  RH  039%=      5-min Rain = 0
KHA2 140017Z 18022G27KT 29/14 A2998 RMK A01 T02880135  RH  039%=      5-min Rain = 0
KHA2 140018Z 18020KT 29/14 A2998 RMK A01 T02880136  RH  039%=      5-min Rain = 0
KHA2 140019Z 18020KT 29/14 A2998 RMK A01 T02870136  RH  040%=      5-min Rain = 0
KHA2 140020Z 18021KT 29/14 A2998 RMK A01 T02870136  RH  040%=      5-min Rain = 0
KHA2 140021Z 18020KT 29/14 A2998 RMK A01 T02870136  RH  040%=      5-min Rain = 0
KHA2 140022Z 18022KT 29/14 A2998 RMK A01 T02860136  RH  040%=      5-min Rain = 0
KHA2 140023Z 18019KT 29/14 A2998 RMK A01 T02860137  RH  040%=      5-min Rain = 0
KHA2 140024Z 18020KT 29/14 A2998 RMK A01 T02860136  RH  040%=      5-min Rain = 0
KHA2 140025Z 18022G27KT 29/14 A2998 RMK A01 T02860137  RH  040%=      5-min Rain = 0
KHA2 140026Z 18020KT 29/14 A2998 RMK A01 T02850136  RH  040%=      5-min Rain = 0
KHA2 140027Z 18020G28KT 29/14 A2997 RMK A01 T02850136  RH  040%=      5-min Rain = 0
KHA2 140028Z 18024KT 29/13 A2997 RMK A01 T02850134  RH  039%=      5-min Rain = 0
KHA2 140029Z 19022KT 29/13 A2997 RMK A01 T02850134  RH  039%=      5-min Rain = 0
KHA2 140030Z 18018KT 29/14 A2997 RMK A01 T02850135  RH  040%=      5-min Rain = 0
KHA2 140031Z 18018G23KT 29/14 A2998 RMK A01 T02850136  RH  040%=      5-min Rain = 0
KHA2 140032Z 18022G27KT 28/14 A2997 RMK A01 T02840136  RH  040%=      5-min Rain = 0
KHA2 140033Z 18023KT 28/14 A2997 RMK A01 T02840135  RH  040%=      5-min Rain = 0
KHA2 140034Z 18023KT 28/13 A2997 RMK A01 T02840134  RH  040%=      5-min Rain = 0
KHA2 140035Z 18018KT 28/13 A2997 RMK A01 T02840134  RH  040%=      5-min Rain = 0
KHA2 140036Z 18017KT 28/14 A2997 RMK A01 T02830136  RH  040%=      5-min Rain = 0
KHA2 140037Z 18020KT 28/14 A2997 RMK A01 T02830135  RH  040%=      5-min Rain = 0
KHA2 140038Z 18019KT 28/14 A2997 RMK A01 T02830136  RH  040%=      5-min Rain = 0
KHA2 140039Z 18021KT 28/14 A2997 RMK A01 T02830135  RH  040%=      5-min Rain = 0
KHA2 140040Z 18020G26KT 28/13 A2997 RMK A01 T02840134  RH  040%=      5-min Rain = 0
KHA2 140041Z 18021KT 28/13 A2997 RMK A01 T02840134  RH  040%=      5-min Rain = 0
KHA2 140042Z 18019G24KT 29/13 A2997 RMK A01 T02850134  RH  040%=      5-min Rain = 0
KHA2 140043Z 18024KT 29/14 A2997 RMK A01 T02850135  RH  040%=      5-min Rain = 0
KHA2 140044Z 18021KT 29/13 A2997 RMK A01 T02850134  RH  039%=      5-min Rain = 0
KHA2 140045Z 18021G29KT 29/13 A2997 RMK A01 T02850133  RH  039%=      5-min Rain = 0
KHA2 140046Z 18022G28KT 29/13 A2997 RMK A01 T02850134  RH  039%=      5-min Rain = 0
KHA2 140047Z 18023KT 29/13 A2997 RMK A01 T02860133  RH  039%=      5-min Rain = 0
KHA2 140048Z 18021KT 29/13 A2997 RMK A01 T02860133  RH  039%=      5-min Rain = 0
KHA2 140049Z 18018G23KT 29/14 A2997 RMK A01 T02860135  RH  039%=      5-min Rain = 0
KHA2 140050Z 18022KT 29/14 A2997 RMK A01 T02870135  RH  039%=      5-min Rain = 0
KHA2 140051Z 18022KT 29/13 A2997 RMK A01 T02870134  RH  039%=      5-min Rain = 0
KHA2 140052Z 19021G26KT 29/13 A2997 RMK A01 T02870134  RH  039%=      5-min Rain = 0
KHA2 140053Z 19022KT 29/13 A2997 RMK A01 T02870134  RH  039%=      5-min Rain = 0
KHA2 140054Z 18018G24KT 29/14 A2997 RMK A01 T02870135  RH  039%=      5-min Rain = 0
KHA2 140055Z 18022G30KT 29/14 A2997 RMK A01 T02860135  RH  039%=      5-min Rain = 0
KHA2 140056Z 18024G30KT 29/13 A2997 RMK A01 T02860134  RH  039%=      5-min Rain = 0
KHA2 140057Z 18024KT 29/13 A2997 RMK A01 T02850133  RH  039%=      5-min Rain = 0
KHA2 140058Z 19023G28KT 28/13 A2997 RMK A01 T02840133  RH  039%=      5-min Rain = 0
KHA2 140059Z 19024G29KT 28/13 A2997 RMK A01 T02840133  RH  039%=      5-min Rain = 0
KHA2 140100Z 18023KT 28/13 A2997 RMK A01 T02840132  RH  039%=      5-min Rain = 0
KHA2 140101Z 18019KT 28/13 A2997 RMK A01 T02830133  RH  040%=      5-min Rain = 0
KHA2 140102Z 18021KT 28/13 A2997 RMK A01 T02820133  RH  040%=      5-min Rain = 0
KHA2 140103Z 18018KT 28/13 A2998 RMK A01 T02810133  RH  040%=      5-min Rain = 0
KHA2 140104Z 18019KT 28/13 A2998 RMK A01 T02810133  RH  040%=      5-min Rain = 0
KHA2 140105Z 18021KT 28/13 A2998 RMK A01 T02800133  RH  040%=      5-min Rain = 0
KHA2 140106Z 17025KT 28/13 A2997 RMK A01 T02800132  RH  040%=      5-min Rain = 0
KHA2 140107Z 18025KT 28/13 A2997 RMK A01 T02800131  RH  040%=      5-min Rain = 0
KHA2 140108Z 18022G27KT 28/13 A2997 RMK A01 T02800130  RH  040%=      5-min Rain = 0
KHA2 140109Z 18019KT 28/13 A2998 RMK A01 T02800131  RH  040%=      5-min Rain = 0
KHA2 140110Z 18020KT 28/13 A2997 RMK A01 T02790132  RH  040%=      5-min Rain = 0
KHA2 140111Z 18018KT 28/13 A2997 RMK A01 T02790132  RH  040%=      5-min Rain = 0
KHA2 140112Z 18021KT 28/13 A2997 RMK A01 T02780132  RH  041%=      5-min Rain = 0
KHA2 140113Z 18024KT 28/13 A2997 RMK A01 T02780132  RH  041%=      5-min Rain = 0
KHA2 140114Z 18023KT 28/13 A2997 RMK A01 T02770131  RH  041%=      5-min Rain = 0
KHA2 140115Z 18020KT 28/13 A2997 RMK A01 T02780132  RH  041%=      5-min Rain = 0
KHA2 140116Z 18022KT 28/13 A2997 RMK A01 T02770132  RH  041%=      5-min Rain = 0
KHA2 140117Z 18020G26KT 28/13 A2997 RMK A01 T02770132  RH  041%=      5-min Rain = 0
KHA2 140118Z 18022KT 28/13 A2996 RMK A01 T02760132  RH  041%=      5-min Rain = 0
KHA2 140119Z 18021KT 28/13 A2996 RMK A01 T02760132  RH  041%=      5-min Rain = 0
KHA2 140120Z 18021KT 28/13 A2996 RMK A01 T02760132  RH  041%=      5-min Rain = 0
KHA2 140121Z 18023KT 28/13 A2996 RMK A01 T02760132  RH  041%=      5-min Rain = 0
KHA2 140122Z 18020G25KT 28/13 A2996 RMK A01 T02760132  RH  041%=      5-min Rain = 0
KHA2 140123Z 18022KT 28/13 A2996 RMK A01 T02750132  RH  041%=      5-min Rain = 0
KHA2 140124Z 17019KT 28/13 A2996 RMK A01 T02750132  RH  041%=      5-min Rain = 0
KHA2 140125Z 18020KT 27/13 A2996 RMK A01 T02740132  RH  042%=      5-min Rain = 0
KHA2 140126Z 18017KT 27/13 A2996 RMK A01 T02740132  RH  042%=      5-min Rain = 0
KHA2 140127Z 18018G23KT 27/13 A2996 RMK A01 T02730132  RH  042%=      5-min Rain = 0
KHA2 140128Z 17018KT 27/13 A2996 RMK A01 T02720133  RH  042%=      5-min Rain = 0
KHA2 140129Z 18017KT 27/13 A2996 RMK A01 T02720132  RH  042%=      5-min Rain = 0
KHA2 140130Z 17017KT 27/13 A2996 RMK A01 T02710133  RH  042%=      5-min Rain = 0
KHA2 140131Z 17017KT 27/13 A2996 RMK A01 T02700133  RH  043%=      5-min Rain = 0
KHA2 140132Z 17016KT 27/13 A2996 RMK A01 T02700133  RH  043%=      5-min Rain = 0
KHA2 140133Z 17017KT 27/13 A2995 RMK A01 T02690133  RH  043%=      5-min Rain = 0
KHA2 140134Z 17015KT 27/13 A2995 RMK A01 T02690133  RH  043%=      5-min Rain = 0
KHA2 140135Z 17019KT 27/13 A2995 RMK A01 T02680133  RH  043%=      5-min Rain = 0
KHA2 140136Z 17016KT 27/13 A2995 RMK A01 T02680133  RH  043%=      5-min Rain = 0
KHA2 140137Z 17019KT 27/13 A2995 RMK A01 T02670133  RH  043%=      5-min Rain = 0
KHA2 140138Z 17019KT 27/13 A2995 RMK A01 T02680134  RH  043%=      5-min Rain = 0
KHA2 140139Z 17017KT 27/13 A2995 RMK A01 T02670133  RH  043%=      5-min Rain = 0
KHA2 140140Z 17018G23KT 27/13 A2995 RMK A01 T02670134  RH  044%=      5-min Rain = 0
KHA2 140141Z 17017KT 27/13 A2995 RMK A01 T02670134  RH  044%=      5-min Rain = 0
KHA2 140142Z 18019KT 27/13 A2995 RMK A01 T02670133  RH  044%=      5-min Rain = 0
KHA2 140143Z 17019KT 27/13 A2995 RMK A01 T02670133  RH  044%=      5-min Rain = 0
KHA2 140144Z 18020KT 27/13 A2995 RMK A01 T02670133  RH  044%=      5-min Rain = 0
KHA2 140145Z 17017KT 27/13 A2995 RMK A01 T02670133  RH  044%=      5-min Rain = 0
KHA2 140146Z 17016KT 27/13 A2995 RMK A01 T02670133  RH  044%=      5-min Rain = 0
KHA2 140147Z 17014KT 27/13 A2995 RMK A01 T02660134  RH  044%=      5-min Rain = 0
KHA2 140148Z 17016KT 26/13 A2995 RMK A01 T02640134  RH  045%=      5-min Rain = 0
KHA2 140149Z 17016KT 26/13 A2995 RMK A01 T02630134  RH  045%=      5-min Rain = 0
KHA2 140150Z 17017KT 26/13 A2995 RMK A01 T02630134  RH  045%=      5-min Rain = 0
KHA2 140151Z 17017G22KT 26/14 A2995 RMK A01 T02630135  RH  045%=      5-min Rain = 0
KHA2 140152Z 17018KT 26/13 A2995 RMK A01 T02630134  RH  045%=      5-min Rain = 0
KHA2 140153Z 17015KT 26/13 A2995 RMK A01 T02630134  RH  045%=      5-min Rain = 0
KHA2 140154Z 17015KT 26/13 A2996 RMK A01 T02630134  RH  045%=      5-min Rain = 0
KHA2 140155Z 16015KT 26/14 A2996 RMK A01 T02620135  RH  045%=      5-min Rain = 0
KHA2 140156Z 16014KT 26/14 A2996 RMK A01 T02610135  RH  046%=      5-min Rain = 0
KHA2 140157Z 17016KT 26/14 A2996 RMK A01 T02600135  RH  046%=      5-min Rain = 0
KHA2 140158Z 16015KT 26/14 A2996 RMK A01 T02600136  RH  046%=      5-min Rain = 0
KHA2 140159Z 16014KT 26/14 A2996 RMK A01 T02590136  RH  046%=      5-min Rain = 0
KHA2 140200Z 17015KT 26/14 A2996 RMK A01 T02580137  RH  047%=      5-min Rain = 0
KHA2 140201Z 17016KT 26/14 A2996 RMK A01 T02570137  RH  047%=      5-min Rain = 0
KHA2 140202Z 17015KT 26/14 A2997 RMK A01 T02570138  RH  048%=      5-min Rain = 0
KHA2 140203Z 17015KT 26/14 A2997 RMK A01 T02570139  RH  048%=      5-min Rain = 0
KHA2 140204Z 17018KT 26/14 A2997 RMK A01 T02570139  RH  048%=      5-min Rain = 0
KHA2 140205Z 17018KT 26/14 A2997 RMK A01 T02570140  RH  048%=      5-min Rain = 0
KHA2 140206Z 17017KT 26/14 A2997 RMK A01 T02570139  RH  048%=      5-min Rain = 0
KHA2 140207Z 16016KT 26/14 A2997 RMK A01 T02570140  RH  048%=      5-min Rain = 0
KHA2 140208Z 17014KT 26/14 A2997 RMK A01 T02560141  RH  049%=      5-min Rain = 0
KHA2 140209Z 17015KT 26/14 A2997 RMK A01 T02560141  RH  049%=      5-min Rain = 0
KHA2 140210Z 17018KT 26/14 A2997 RMK A01 T02550141  RH  049%=      5-min Rain = 0
KHA2 140211Z 17018KT 26/14 A2998 RMK A01 T02550141  RH  049%=      5-min Rain = 0
KHA2 140212Z 17017KT 26/14 A2998 RMK A01 T02550141  RH  049%=      5-min Rain = 0
KHA2 140213Z 17016KT 26/14 A2998 RMK A01 T02550142  RH  049%=      5-min Rain = 0
KHA2 140214Z 17016KT 26/14 A2998 RMK A01 T02550142  RH  050%=      5-min Rain = 0
KHA2 140215Z 17015KT 25/14 A2998 RMK A01 T02540142  RH  050%=      5-min Rain = 0
KHA2 140216Z 17016KT 25/14 A2998 RMK A01 T02530142  RH  050%=      5-min Rain = 0
KHA2 140217Z 16017KT 25/14 A2998 RMK A01 T02530142  RH  050%=      5-min Rain = 0
KHA2 140218Z 16016KT 25/14 A2998 RMK A01 T02530142  RH  050%=      5-min Rain = 0
KHA2 140219Z 16016KT 25/14 A2998 RMK A01 T02530143  RH  050%=      5-min Rain = 0
KHA2 140220Z 16018KT 25/14 A2998 RMK A01 T02530143  RH  050%=      5-min Rain = 0
KHA2 140221Z 16021KT 25/14 A2998 RMK A01 T02530144  RH  051%=      5-min Rain = 0
KHA2 140222Z 16019KT 25/14 A2998 RMK A01 T02530144  RH  051%=      5-min Rain = 0
KHA2 140223Z 16016KT 25/15 A2998 RMK A01 T02530145  RH  051%=      5-min Rain = 0
KHA2 140224Z 16017KT 25/15 A2998 RMK A01 T02520145  RH  052%=      5-min Rain = 0
KHA2 140225Z 16018KT 25/15 A2998 RMK A01 T02510146  RH  052%=      5-min Rain = 0
KHA2 140226Z 16018KT 25/15 A2998 RMK A01 T02510146  RH  052%=      5-min Rain = 0
KHA2 140227Z 16017KT 25/15 A2998 RMK A01 T02510147  RH  052%=      5-min Rain = 0
KHA2 140228Z 16015KT 25/15 A2998 RMK A01 T02500147  RH  052%=      5-min Rain = 0
KHA2 140229Z 16016G21KT 25/15 A2998 RMK A01 T02500147  RH  053%=      5-min Rain = 0
KHA2 140230Z 16017KT 25/15 A2998 RMK A01 T02490147  RH  053%=      5-min Rain = 0
KHA2 140231Z 16017G22KT 25/15 A2998 RMK A01 T02490147  RH  053%=      5-min Rain = 0
KHA2 140232Z 16017KT 25/15 A2998 RMK A01 T02490147  RH  053%=      5-min Rain = 0
KHA2 140233Z 16016KT 25/15 A2998 RMK A01 T02490148  RH  053%=      5-min Rain = 0
KHA2 140234Z 16017KT 25/15 A2998 RMK A01 T02490148  RH  054%=      5-min Rain = 0
KHA2 140235Z 16017KT 25/15 A2998 RMK A01 T02490149  RH  054%=      5-min Rain = 0
KHA2 140236Z 17020KT 25/15 A2998 RMK A01 T02480149  RH  054%=      5-min Rain = 0
KHA2 140237Z 16017KT 25/15 A2998 RMK A01 T02490149  RH  054%=      5-min Rain = 0
KHA2 140238Z 17017KT 25/15 A2999 RMK A01 T02480149  RH  054%=      5-min Rain = 0
KHA2 140239Z 17018KT 25/15 A2999 RMK A01 T02480149  RH  054%=      5-min Rain = 0
KHA2 140240Z 17016G21KT 25/15 A2999 RMK A01 T02480149  RH  054%=      5-min Rain = 0
KHA2 140241Z 16018KT 25/15 A2999 RMK A01 T02480150  RH  054%=      5-min Rain = 0
KHA2 140242Z 17015KT 25/15 A2999 RMK A01 T02480150  RH  054%=      5-min Rain = 0
KHA2 140243Z 17018KT 25/15 A2999 RMK A01 T02480150  RH  054%=      5-min Rain = 0
KHA2 140244Z 17016KT 25/15 A2999 RMK A01 T02470150  RH  055%=      5-min Rain = 0
KHA2 140245Z 16018KT 25/15 A2999 RMK A01 T02470150  RH  055%=      5-min Rain = 0
KHA2 140246Z 17015KT 25/15 A2999 RMK A01 T02470150  RH  055%=      5-min Rain = 0
KHA2 140247Z 17016KT 25/15 A2999 RMK A01 T02460150  RH  055%=      5-min Rain = 0
KHA2 140248Z 16018KT 25/15 A2999 RMK A01 T02460150  RH  055%=      5-min Rain = 0
KHA2 140249Z 16017KT 25/15 A2999 RMK A01 T02460150  RH  055%=      5-min Rain = 0
KHA2 140250Z 16019KT 25/15 A2999 RMK A01 T02460150  RH  055%=      5-min Rain = 0
KHA2 140251Z 16015KT 25/15 A2999 RMK A01 T02460150  RH  055%=      5-min Rain = 0
KHA2 140252Z 16015G20KT 25/15 A2999 RMK A01 T02450151  RH  056%=      5-min Rain = 0
KHA2 140253Z 16016KT 24/15 A2998 RMK A01 T02440151  RH  056%=      5-min Rain = 0
KHA2 140254Z 16016KT 24/15 A2998 RMK A01 T02440151  RH  056%=      5-min Rain = 0
KHA2 140255Z 16018KT 24/15 A2998 RMK A01 T02440151  RH  056%=      5-min Rain = 0
KHA2 140256Z 16016KT 24/15 A2998 RMK A01 T02440151  RH  056%=      5-min Rain = 0
KHA2 140257Z 16014KT 24/15 A2998 RMK A01 T02430151  RH  056%=      5-min Rain = 0
KHA2 140258Z 16015KT 24/15 A2998 RMK A01 T02420151  RH  057%=      5-min Rain = 0
KHA2 140259Z 16016KT 24/15 A2998 RMK A01 T02420151  RH  057%=      5-min Rain = 0
KHA2 140300Z 16016KT 24/15 A2998 RMK A01 T02420151  RH  057%=      5-min Rain = 0
KHA2 140301Z 16014KT 24/15 A2998 RMK A01 T02420151  RH  057%=      5-min Rain = 0
KHA2 140302Z 16014KT 24/15 A2998 RMK A01 T02410151  RH  057%=      5-min Rain = 0
KHA2 140303Z 16016KT 24/15 A2998 RMK A01 T02410152  RH  057%=      5-min Rain = 0
KHA2 140304Z 16013KT 24/15 A2998 RMK A01 T02410152  RH  057%=      5-min Rain = 0
KHA2 140305Z 16012KT 24/15 A2998 RMK A01 T02400152  RH  058%=      5-min Rain = 0
KHA2 140306Z 16014KT 24/15 A2998 RMK A01 T02390151  RH  058%=      5-min Rain = 0
KHA2 140307Z 16013KT 24/15 A2998 RMK A01 T02390152  RH  058%=      5-min Rain = 0
KHA2 140308Z 16014KT 24/15 A2998 RMK A01 T02390152  RH  058%=      5-min Rain = 0
KHA2 140309Z 16014KT 24/15 A2999 RMK A01 T02390152  RH  058%=      5-min Rain = 0
KHA2 140310Z 17014KT 24/15 A2999 RMK A01 T02390152  RH  058%=      5-min Rain = 0
KHA2 140311Z 16013KT 24/15 A2999 RMK A01 T02390152  RH  058%=      5-min Rain = 0
KHA2 140312Z 17013KT 24/15 A30 RMK A01 T02400152  RH  058%=      5-min Rain = 0
KHA2 140313Z 17013KT 24/15 A30 RMK A01 T02400152  RH  058%=      5-min Rain = 0
KHA2 140314Z 17011KT 24/15 A30 RMK A01 T02390152  RH  058%=      5-min Rain = 0
KHA2 140315Z 17013KT 24/15 A30 RMK A01 T02390152  RH  058%=      5-min Rain = 0
KHA2 140316Z 16014KT 24/15 A30 RMK A01 T02390152  RH  058%=      5-min Rain = 0
KHA2 140317Z 16013KT 24/15 A2999 RMK A01 T02390152  RH  058%=      5-min Rain = 0
KHA2 140318Z 16014KT 24/15 A2999 RMK A01 T02390152  RH  058%=      5-min Rain = 0
KHA2 140319Z 16013KT 24/15 A2999 RMK A01 T02390152  RH  058%=      5-min Rain = 0
KHA2 140320Z 16014KT 24/15 A2999 RMK A01 T02390152  RH  058%=      5-min Rain = 0
KHA2 140321Z 16015KT 24/15 A2999 RMK A01 T02380152  RH  059%=      5-min Rain = 0
KHA2 140322Z 16013KT 24/15 A2999 RMK A01 T02380152  RH  059%=      5-min Rain = 0
KHA2 140323Z 16013KT 24/15 A30 RMK A01 T02380152  RH  059%=      5-min Rain = 0
KHA2 140324Z 16011KT 24/15 A30 RMK A01 T02380152  RH  059%=      5-min Rain = 0
KHA2 140325Z 16013KT 24/15 A30 RMK A01 T02370153  RH  059%=      5-min Rain = 0
KHA2 140326Z 16013KT 24/15 A30 RMK A01 T02370153  RH  059%=      5-min Rain = 0
KHA2 140327Z 16013KT 24/15 A30 RMK A01 T02370153  RH  059%=      5-min Rain = 0
KHA2 140328Z 16013KT 24/15 A30 RMK A01 T02370153  RH  059%=      5-min Rain = 0
KHA2 140329Z 16013G18KT 24/15 A30 RMK A01 T02360153  RH  059%=      5-min Rain = 0
KHA2 140330Z 16014G19KT 24/15 A30 RMK A01 T02370153  RH  059%=      5-min Rain = 0
KHA2 140331Z 16013KT 24/15 A30 RMK A01 T02370153  RH  059%=      5-min Rain = 0
KHA2 140332Z 16012KT 24/15 A30 RMK A01 T02370153  RH  059%=      5-min Rain = 0
KHA2 140333Z 16013KT 24/15 A30 RMK A01 T02360153  RH  060%=      5-min Rain = 0
KHA2 140334Z 16014KT 24/15 A30 RMK A01 T02350153  RH  060%=      5-min Rain = 0
KHA2 140335Z 16013KT 24/15 A30 RMK A01 T02350153  RH  060%=      5-min Rain = 0
KHA2 140336Z 16013KT 24/15 A30 RMK A01 T02350153  RH  060%=      5-min Rain = 0
KHA2 140337Z 16013KT 23/15 A30 RMK A01 T02340153  RH  060%=      5-min Rain = 0
KHA2 140338Z 16013KT 23/15 A30 RMK A01 T02340153  RH  060%=      5-min Rain = 0
KHA2 140339Z 16012KT 23/15 A30 RMK A01 T02340153  RH  060%=      5-min Rain = 0
KHA2 140340Z 15014KT 23/15 A30 RMK A01 T02330153  RH  061%=      5-min Rain = 0
KHA2 140341Z 16012KT 23/15 A30 RMK A01 T02340153  RH  061%=      5-min Rain = 0
KHA2 140342Z 16013KT 23/15 A30 RMK A01 T02330153  RH  061%=      5-min Rain = 0
KHA2 140343Z 16015KT 23/15 A2999 RMK A01 T02330153  RH  061%=      5-min Rain = 0
KHA2 140344Z 16015KT 23/15 A2999 RMK A01 T02330153  RH  061%=      5-min Rain = 0
KHA2 140345Z 16014KT 23/15 A2999 RMK A01 T02330153  RH  061%=      5-min Rain = 0
KHA2 140346Z 15014KT 23/15 A2999 RMK A01 T02330153  RH  061%=      5-min Rain = 0
KHA2 140347Z 15015KT 23/15 A2999 RMK A01 T02330153  RH  061%=      5-min Rain = 0
KHA2 140348Z 15015KT 23/15 A2999 RMK A01 T02330153  RH  061%=      5-min Rain = 0
KHA2 140349Z 15014KT 23/15 A2999 RMK A01 T02330153  RH  061%=      5-min Rain = 0
KHA2 140350Z 15014KT 23/15 A2999 RMK A01 T02330152  RH  060%=      5-min Rain = 0
KHA2 140351Z 15014KT 23/15 A30 RMK A01 T02340152  RH  060%=      5-min Rain = 0
KHA2 140352Z 15014KT 23/15 A30 RMK A01 T02340152  RH  060%=      5-min Rain = 0
KHA2 140353Z 15015KT 23/15 A30 RMK A01 T02340152  RH  060%=      5-min Rain = 0
KHA2 140354Z 15014KT 23/15 A30 RMK A01 T02340152  RH  060%=      5-min Rain = 0
KHA2 140355Z 15013KT 24/15 A30 RMK A01 T02350152  RH  060%=      5-min Rain = 0
KHA2 140356Z 15012KT 24/15 A30 RMK A01 T02350152  RH  059%=      5-min Rain = 0
KHA2 140357Z 15013KT 24/15 A30 RMK A01 T02350152  RH  060%=      5-min Rain = 0
KHA2 140358Z 15013KT 24/15 A30 RMK A01 T02350152  RH  060%=      5-min Rain = 0
KHA2 140359Z 15012KT 24/15 A30 RMK A01 T02350151  RH  060%=      5-min Rain = 0
KHA2 140400Z 15013KT 24/15 A30 RMK A01 T02350151  RH  060%=      5-min Rain = 0
KHA2 140401Z 15013KT 24/15 A30 RMK A01 T02350151  RH  059%=      5-min Rain = 0
KHA2 140402Z 15011KT 24/15 A30 RMK A01 T02350151  RH  060%=      5-min Rain = 0
KHA2 140403Z 15013KT 23/15 A30 RMK A01 T02340151  RH  060%=      5-min Rain = 0
KHA2 140404Z 15013KT 23/15 A30 RMK A01 T02340151  RH  060%=      5-min Rain = 0
KHA2 140405Z 15014KT 23/15 A30 RMK A01 T02340151  RH  060%=      5-min Rain = 0
KHA2 140406Z 14013KT 23/15 A30 RMK A01 T02330151  RH  060%=      5-min Rain = 0
KHA2 140407Z 14013KT 23/15 A30 RMK A01 T02330151  RH  060%=      5-min Rain = 0
KHA2 140408Z 14013KT 23/15 A2999 RMK A01 T02330151  RH  060%=      5-min Rain = 0
KHA2 140409Z 14013KT 23/15 A2999 RMK A01 T02330151  RH  060%=      5-min Rain = 0
KHA2 140410Z 14012KT 23/15 A2999 RMK A01 T02330151  RH  060%=      5-min Rain = 0
KHA2 140411Z 14013KT 23/15 A2999 RMK A01 T02330151  RH  060%=      5-min Rain = 0
KHA2 140412Z 14012KT 23/15 A2999 RMK A01 T02330151  RH  060%=      5-min Rain = 0
KHA2 140413Z 14013KT 23/15 A2999 RMK A01 T02330151  RH  060%=      5-min Rain = 0
KHA2 140414Z 14013KT 23/15 A2999 RMK A01 T02330151  RH  060%=      5-min Rain = 0
KHA2 140415Z 14013KT 23/15 A2999 RMK A01 T02330151  RH  060%=      5-min Rain = 0
KHA2 140416Z 13012KT 23/15 A2999 RMK A01 T02330151  RH  060%=      5-min Rain = 0
KHA2 140417Z 13011KT 23/15 A2999 RMK A01 T02320152  RH  060%=      5-min Rain = 0
KHA2 140418Z 14012KT 23/15 A2999 RMK A01 T02310152  RH  061%=      5-min Rain = 0
KHA2 140419Z 13012KT 23/15 A2999 RMK A01 T02310152  RH  061%=      5-min Rain = 0
KHA2 140420Z 14012KT 23/15 A2999 RMK A01 T02300153  RH  062%=      5-min Rain = 0
KHA2 140421Z 14013KT 23/15 A30 RMK A01 T02300153  RH  062%=      5-min Rain = 0
KHA2 140422Z 14013KT 23/15 A30 RMK A01 T02300154  RH  062%=      5-min Rain = 0
KHA2 140423Z 14011KT 23/15 A30 RMK A01 T02290153  RH  062%=      5-min Rain = 0
KHA2 140424Z 14013KT 23/15 A30 RMK A01 T02300154  RH  062%=      5-min Rain = 0
KHA2 140425Z 14012KT 23/15 A30 RMK A01 T02300154  RH  062%=      5-min Rain = 0
KHA2 140426Z 14013KT 23/15 A30 RMK A01 T02300154  RH  062%=      5-min Rain = 0
KHA2 140427Z 14012KT 23/15 A30 RMK A01 T02300154  RH  062%=      5-min Rain = 0
KHA2 140428Z 14012KT 23/15 A30 RMK A01 T02300154  RH  062%=      5-min Rain = 0
KHA2 140429Z 14011KT 23/15 A30 RMK A01 T02300154  RH  062%=      5-min Rain = 0
KHA2 140430Z 15011KT 23/15 A3001 RMK A01 T02300154  RH  062%=      5-min Rain = 0
KHA2 140431Z 15012KT 23/16 A3001 RMK A01 T02300155  RH  063%=      5-min Rain = 0
KHA2 140432Z 15013KT 23/16 A3001 RMK A01 T02300155  RH  063%=      5-min Rain = 0
KHA2 140433Z 15012KT 23/16 A3001 RMK A01 T02300155  RH  062%=      5-min Rain = 0
KHA2 140434Z 14013KT 23/16 A3001 RMK A01 T02310155  RH  062%=      5-min Rain = 0
KHA2 140435Z 15013KT 23/16 A3001 RMK A01 T02310155  RH  062%=      5-min Rain = 0
KHA2 140436Z 15012KT 23/15 A3001 RMK A01 T02310154  RH  062%=      5-min Rain = 0
KHA2 140437Z 14013KT 23/16 A3001 RMK A01 T02310155  RH  062%=      5-min Rain = 0
KHA2 140438Z 14013KT 23/16 A3001 RMK A01 T02310155  RH  062%=      5-min Rain = 0
KHA2 140439Z 15012KT 23/16 A3001 RMK A01 T02310155  RH  062%=      5-min Rain = 0
KHA2 140440Z 15014G19KT 23/16 A3001 RMK A01 T02320155  RH  062%=      5-min Rain = 0
KHA2 140441Z 15013KT 23/16 A3001 RMK A01 T02320155  RH  062%=      5-min Rain = 0
KHA2 140442Z 14012KT 23/16 A3001 RMK A01 T02320155  RH  062%=      5-min Rain = 0
KHA2 140443Z 14011KT 23/16 A3001 RMK A01 T02310155  RH  062%=      5-min Rain = 0
KHA2 140444Z 14010KT 23/16 A3001 RMK A01 T02310155  RH  062%=      5-min Rain = 0
KHA2 140445Z 13011KT 23/16 A3001 RMK A01 T02300156  RH  063%=      5-min Rain = 0
KHA2 140446Z 13011KT 23/16 A3001 RMK A01 T02290156  RH  063%=      5-min Rain = 0
KHA2 140447Z 13011KT 23/16 A3001 RMK A01 T02280156  RH  064%=      5-min Rain = 0
KHA2 140448Z 13011KT 23/16 A3001 RMK A01 T02270156  RH  064%=      5-min Rain = 0
KHA2 140449Z 14011KT 23/16 A3001 RMK A01 T02260156  RH  065%=      5-min Rain = 0
KHA2 140450Z 14010KT 23/16 A3001 RMK A01 T02260157  RH  065%=      5-min Rain = 0
KHA2 140451Z 14010KT 23/16 A3001 RMK A01 T02250156  RH  065%=      5-min Rain = 0
KHA2 140452Z 14010KT 23/16 A3001 RMK A01 T02260157  RH  065%=      5-min Rain = 0
KHA2 140453Z 14012KT 23/16 A3001 RMK A01 T02260157  RH  065%=      5-min Rain = 0
KHA2 140454Z 14013KT 23/16 A3002 RMK A01 T02260157  RH  065%=      5-min Rain = 0
KHA2 140455Z 14010KT 23/16 A3002 RMK A01 T02270157  RH  064%=      5-min Rain = 0
KHA2 140456Z 14010KT 23/16 A3002 RMK A01 T02270157  RH  064%=      5-min Rain = 0
KHA2 140457Z 15010KT 23/16 A3002 RMK A01 T02270157  RH  064%=      5-min Rain = 0
KHA2 140458Z 14010KT 23/16 A3002 RMK A01 T02270157  RH  064%=      5-min Rain = 0
KHA2 140459Z 14009KT 23/16 A3003 RMK A01 T02270157  RH  064%=      5-min Rain = 0

Page generated in 0.2798 seconds.